<?xml version="1.0" encoding="UTF-8" standalone="no" ?>
<gpx xmlns="http://www.topografix.com/GPX/1/1" xmlns:xsi="http://www.w3.org/2001/XMLSchema-instance" xsi:schemaLocation="http://www.topografix.com/GPX/1/1 http://www.topografix.com/GPX/1/1/gpx.xsd" version="1.1" creator="VisuGPX - https://www.visugpx.com">
  <metadata>
    <name>2009 LAGAHL</name>
    <desc><![CDATA[Lozère-Aveyron-Gard-Ardèche-Haute Loire]]></desc>
  </metadata>
  <trk>
    <name><![CDATA[E02]]></name>
    <trkseg>
      <trkpt lat="44.37397" lon="3.77659">
        <ele>1257</ele>
        <time>2009-07-10T13:37:29Z</time>
      </trkpt>
      <trkpt lat="44.37396" lon="3.77669">
        <ele>1258</ele>
        <time>2009-07-10T13:38:39Z</time>
      </trkpt>
      <trkpt lat="44.37399" lon="3.77682">
        <ele>1258</ele>
        <time>2009-07-10T13:38:46Z</time>
      </trkpt>
      <trkpt lat="44.37412" lon="3.77717">
        <ele>1258</ele>
        <time>2009-07-10T13:38:59Z</time>
      </trkpt>
      <trkpt lat="44.37425" lon="3.77754">
        <ele>1258</ele>
        <time>2009-07-10T13:39:12Z</time>
      </trkpt>
      <trkpt lat="44.37439" lon="3.77792">
        <ele>1259</ele>
        <time>2009-07-10T13:39:26Z</time>
      </trkpt>
      <trkpt lat="44.37441" lon="3.77799">
        <ele>1259</ele>
        <time>2009-07-10T13:39:29Z</time>
      </trkpt>
      <trkpt lat="44.37423" lon="3.77844">
        <ele>1260</ele>
        <time>2009-07-10T13:39:46Z</time>
      </trkpt>
      <trkpt lat="44.3739" lon="3.77889">
        <ele>1261</ele>
        <time>2009-07-10T13:40:04Z</time>
      </trkpt>
      <trkpt lat="44.37363" lon="3.77939">
        <ele>1261</ele>
        <time>2009-07-10T13:40:21Z</time>
      </trkpt>
      <trkpt lat="44.37337" lon="3.78">
        <ele>1263</ele>
        <time>2009-07-10T13:40:40Z</time>
      </trkpt>
      <trkpt lat="44.37323" lon="3.78065">
        <ele>1266</ele>
        <time>2009-07-10T13:40:59Z</time>
      </trkpt>
      <trkpt lat="44.37316" lon="3.78142">
        <ele>1268</ele>
        <time>2009-07-10T13:41:20Z</time>
      </trkpt>
      <trkpt lat="44.37307" lon="3.78214">
        <ele>1268</ele>
        <time>2009-07-10T13:41:39Z</time>
      </trkpt>
      <trkpt lat="44.3728" lon="3.78281">
        <ele>1269</ele>
        <time>2009-07-10T13:41:58Z</time>
      </trkpt>
      <trkpt lat="44.37256" lon="3.78353">
        <ele>1269</ele>
        <time>2009-07-10T13:42:18Z</time>
      </trkpt>
      <trkpt lat="44.3724" lon="3.78393">
        <ele>1271</ele>
        <time>2009-07-10T13:42:30Z</time>
      </trkpt>
      <trkpt lat="44.3723" lon="3.78428">
        <ele>1274</ele>
        <time>2009-07-10T13:42:40Z</time>
      </trkpt>
      <trkpt lat="44.37226" lon="3.78498">
        <ele>1275</ele>
        <time>2009-07-10T13:42:59Z</time>
      </trkpt>
      <trkpt lat="44.37214" lon="3.78574">
        <ele>1277</ele>
        <time>2009-07-10T13:43:20Z</time>
      </trkpt>
      <trkpt lat="44.37198" lon="3.78665">
        <ele>1279</ele>
        <time>2009-07-10T13:43:45Z</time>
      </trkpt>
      <trkpt lat="44.37195" lon="3.7874">
        <ele>1282</ele>
        <time>2009-07-10T13:44:04Z</time>
      </trkpt>
      <trkpt lat="44.37201" lon="3.7882">
        <ele>1283</ele>
        <time>2009-07-10T13:44:24Z</time>
      </trkpt>
      <trkpt lat="44.37231" lon="3.78892">
        <ele>1283</ele>
        <time>2009-07-10T13:44:42Z</time>
      </trkpt>
      <trkpt lat="44.37282" lon="3.78953">
        <ele>1280</ele>
        <time>2009-07-10T13:44:58Z</time>
      </trkpt>
      <trkpt lat="44.37317" lon="3.78998">
        <ele>1278</ele>
        <time>2009-07-10T13:45:07Z</time>
      </trkpt>
      <trkpt lat="44.37324" lon="3.79032">
        <ele>1278</ele>
        <time>2009-07-10T13:45:12Z</time>
      </trkpt>
      <trkpt lat="44.37323" lon="3.79046">
        <ele>1277</ele>
        <time>2009-07-10T13:45:14Z</time>
      </trkpt>
      <trkpt lat="44.37306" lon="3.79065">
        <ele>1278</ele>
        <time>2009-07-10T13:45:21Z</time>
      </trkpt>
      <trkpt lat="44.37293" lon="3.79066">
        <ele>1279</ele>
        <time>2009-07-10T13:45:30Z</time>
      </trkpt>
      <trkpt lat="44.37258" lon="3.79067">
        <ele>1282</ele>
        <time>2009-07-10T13:45:43Z</time>
      </trkpt>
      <trkpt lat="44.37211" lon="3.79063">
        <ele>1282</ele>
        <time>2009-07-10T13:45:56Z</time>
      </trkpt>
      <trkpt lat="44.3716" lon="3.79072">
        <ele>1281</ele>
        <time>2009-07-10T13:46:11Z</time>
      </trkpt>
      <trkpt lat="44.37154" lon="3.79076">
        <ele>1281</ele>
        <time>2009-07-10T13:46:13Z</time>
      </trkpt>
      <trkpt lat="44.37151" lon="3.79097">
        <ele>1281</ele>
        <time>2009-07-10T13:46:18Z</time>
      </trkpt>
      <trkpt lat="44.3717" lon="3.7917">
        <ele>1281</ele>
        <time>2009-07-10T13:46:34Z</time>
      </trkpt>
      <trkpt lat="44.37151" lon="3.79247">
        <ele>1281</ele>
        <time>2009-07-10T13:46:49Z</time>
      </trkpt>
      <trkpt lat="44.37143" lon="3.79297">
        <ele>1280</ele>
        <time>2009-07-10T13:46:59Z</time>
      </trkpt>
      <trkpt lat="44.37147" lon="3.79344">
        <ele>1280</ele>
        <time>2009-07-10T13:47:10Z</time>
      </trkpt>
      <trkpt lat="44.37145" lon="3.79381">
        <ele>1278</ele>
        <time>2009-07-10T13:47:20Z</time>
      </trkpt>
      <trkpt lat="44.37145" lon="3.79391">
        <ele>1278</ele>
        <time>2009-07-10T13:47:26Z</time>
      </trkpt>
      <trkpt lat="44.37151" lon="3.79428">
        <ele>1279</ele>
        <time>2009-07-10T13:47:39Z</time>
      </trkpt>
      <trkpt lat="44.37156" lon="3.79439">
        <ele>1280</ele>
        <time>2009-07-10T13:47:44Z</time>
      </trkpt>
      <trkpt lat="44.37169" lon="3.79479">
        <ele>1282</ele>
        <time>2009-07-10T13:47:58Z</time>
      </trkpt>
      <trkpt lat="44.37172" lon="3.79487">
        <ele>1281</ele>
        <time>2009-07-10T13:48:00Z</time>
      </trkpt>
      <trkpt lat="44.37181" lon="3.79504">
        <ele>1280</ele>
        <time>2009-07-10T13:48:05Z</time>
      </trkpt>
      <trkpt lat="44.37201" lon="3.79572">
        <ele>1277</ele>
        <time>2009-07-10T13:48:19Z</time>
      </trkpt>
      <trkpt lat="44.37202" lon="3.79577">
        <ele>1275</ele>
        <time>2009-07-10T13:48:20Z</time>
      </trkpt>
      <trkpt lat="44.37195" lon="3.79585">
        <ele>1273</ele>
        <time>2009-07-10T13:48:33Z</time>
      </trkpt>
      <trkpt lat="44.37193" lon="3.79585">
        <ele>1274</ele>
        <time>2009-07-10T13:48:39Z</time>
      </trkpt>
      <trkpt lat="44.37194" lon="3.79596">
        <ele>1273</ele>
        <time>2009-07-10T13:48:43Z</time>
      </trkpt>
      <trkpt lat="44.37192" lon="3.79621">
        <ele>1274</ele>
        <time>2009-07-10T13:48:53Z</time>
      </trkpt>
      <trkpt lat="44.37189" lon="3.79626">
        <ele>1274</ele>
        <time>2009-07-10T13:49:05Z</time>
      </trkpt>
      <trkpt lat="44.37185" lon="3.79621">
        <ele>1274</ele>
        <time>2009-07-10T13:49:17Z</time>
      </trkpt>
      <trkpt lat="44.37181" lon="3.79627">
        <ele>1274</ele>
        <time>2009-07-10T13:49:26Z</time>
      </trkpt>
      <trkpt lat="44.37176" lon="3.79634">
        <ele>1274</ele>
        <time>2009-07-10T13:49:39Z</time>
      </trkpt>
      <trkpt lat="44.37175" lon="3.79634">
        <ele>1273</ele>
        <time>2009-07-10T13:49:40Z</time>
      </trkpt>
      <trkpt lat="44.37166" lon="3.79637">
        <ele>1273</ele>
        <time>2009-07-10T13:49:53Z</time>
      </trkpt>
      <trkpt lat="44.37161" lon="3.79626">
        <ele>1274</ele>
        <time>2009-07-10T13:50:03Z</time>
      </trkpt>
      <trkpt lat="44.37158" lon="3.79618">
        <ele>1274</ele>
        <time>2009-07-10T13:50:17Z</time>
      </trkpt>
      <trkpt lat="44.37153" lon="3.79604">
        <ele>1273</ele>
        <time>2009-07-10T13:50:29Z</time>
      </trkpt>
      <trkpt lat="44.37147" lon="3.79587">
        <ele>1274</ele>
        <time>2009-07-10T13:50:44Z</time>
      </trkpt>
      <trkpt lat="44.37136" lon="3.79578">
        <ele>1273</ele>
        <time>2009-07-10T13:50:57Z</time>
      </trkpt>
      <trkpt lat="44.37126" lon="3.7958">
        <ele>1274</ele>
        <time>2009-07-10T13:51:12Z</time>
      </trkpt>
      <trkpt lat="44.37126" lon="3.79582">
        <ele>1275</ele>
        <time>2009-07-10T13:54:00Z</time>
      </trkpt>
      <trkpt lat="44.37103" lon="3.79595">
        <ele>1276</ele>
        <time>2009-07-10T13:54:15Z</time>
      </trkpt>
      <trkpt lat="44.37101" lon="3.79594">
        <ele>1276</ele>
        <time>2009-07-10T13:54:16Z</time>
      </trkpt>
      <trkpt lat="44.37086" lon="3.79579">
        <ele>1278</ele>
        <time>2009-07-10T13:54:25Z</time>
      </trkpt>
      <trkpt lat="44.37077" lon="3.79571">
        <ele>1278</ele>
        <time>2009-07-10T13:54:31Z</time>
      </trkpt>
      <trkpt lat="44.3707" lon="3.79575">
        <ele>1278</ele>
        <time>2009-07-10T13:54:36Z</time>
      </trkpt>
      <trkpt lat="44.37064" lon="3.79592">
        <ele>1280</ele>
        <time>2009-07-10T13:54:44Z</time>
      </trkpt>
      <trkpt lat="44.37061" lon="3.79598">
        <ele>1280</ele>
        <time>2009-07-10T13:54:48Z</time>
      </trkpt>
      <trkpt lat="44.37051" lon="3.79624">
        <ele>1281</ele>
        <time>2009-07-10T13:55:02Z</time>
      </trkpt>
      <trkpt lat="44.3704" lon="3.79646">
        <ele>1284</ele>
        <time>2009-07-10T13:55:16Z</time>
      </trkpt>
      <trkpt lat="44.37034" lon="3.79665">
        <ele>1285</ele>
        <time>2009-07-10T13:55:26Z</time>
      </trkpt>
      <trkpt lat="44.3703" lon="3.79673">
        <ele>1286</ele>
        <time>2009-07-10T13:55:30Z</time>
      </trkpt>
      <trkpt lat="44.37032" lon="3.79682">
        <ele>1287</ele>
        <time>2009-07-10T13:55:34Z</time>
      </trkpt>
      <trkpt lat="44.37035" lon="3.79716">
        <ele>1288</ele>
        <time>2009-07-10T13:55:48Z</time>
      </trkpt>
      <trkpt lat="44.37034" lon="3.79747">
        <ele>1290</ele>
        <time>2009-07-10T13:56:01Z</time>
      </trkpt>
      <trkpt lat="44.37028" lon="3.79773">
        <ele>1293</ele>
        <time>2009-07-10T13:56:13Z</time>
      </trkpt>
      <trkpt lat="44.37023" lon="3.79793">
        <ele>1294</ele>
        <time>2009-07-10T13:56:22Z</time>
      </trkpt>
      <trkpt lat="44.3702" lon="3.79798">
        <ele>1294</ele>
        <time>2009-07-10T13:56:26Z</time>
      </trkpt>
      <trkpt lat="44.37013" lon="3.79808">
        <ele>1295</ele>
        <time>2009-07-10T13:56:32Z</time>
      </trkpt>
      <trkpt lat="44.37007" lon="3.79829">
        <ele>1297</ele>
        <time>2009-07-10T13:56:42Z</time>
      </trkpt>
      <trkpt lat="44.37008" lon="3.7987">
        <ele>1300</ele>
        <time>2009-07-10T13:56:59Z</time>
      </trkpt>
      <trkpt lat="44.37003" lon="3.79898">
        <ele>1303</ele>
        <time>2009-07-10T13:57:13Z</time>
      </trkpt>
      <trkpt lat="44.36999" lon="3.799">
        <ele>1304</ele>
        <time>2009-07-10T13:57:16Z</time>
      </trkpt>
      <trkpt lat="44.3699" lon="3.79915">
        <ele>1307</ele>
        <time>2009-07-10T13:57:26Z</time>
      </trkpt>
      <trkpt lat="44.36982" lon="3.79942">
        <ele>1309</ele>
        <time>2009-07-10T13:57:40Z</time>
      </trkpt>
      <trkpt lat="44.3698" lon="3.79954">
        <ele>1310</ele>
        <time>2009-07-10T13:57:46Z</time>
      </trkpt>
      <trkpt lat="44.36983" lon="3.79985">
        <ele>1312</ele>
        <time>2009-07-10T13:58:01Z</time>
      </trkpt>
      <trkpt lat="44.36978" lon="3.79993">
        <ele>1314</ele>
        <time>2009-07-10T13:58:07Z</time>
      </trkpt>
      <trkpt lat="44.36985" lon="3.8003">
        <ele>1314</ele>
        <time>2009-07-10T13:58:23Z</time>
      </trkpt>
      <trkpt lat="44.36988" lon="3.80038">
        <ele>1312</ele>
        <time>2009-07-10T13:58:36Z</time>
      </trkpt>
      <trkpt lat="44.36989" lon="3.80042">
        <ele>1314</ele>
        <time>2009-07-10T13:58:55Z</time>
      </trkpt>
      <trkpt lat="44.36991" lon="3.80041">
        <ele>1314</ele>
        <time>2009-07-10T13:59:34Z</time>
      </trkpt>
      <trkpt lat="44.3699" lon="3.80042">
        <ele>1312</ele>
        <time>2009-07-10T13:59:53Z</time>
      </trkpt>
      <trkpt lat="44.3699" lon="3.80042">
        <ele>1313</ele>
        <time>2009-07-10T14:00:02Z</time>
      </trkpt>
      <trkpt lat="44.36996" lon="3.80051">
        <ele>1313</ele>
        <time>2009-07-10T14:00:08Z</time>
      </trkpt>
      <trkpt lat="44.37014" lon="3.80096">
        <ele>1313</ele>
        <time>2009-07-10T14:00:24Z</time>
      </trkpt>
      <trkpt lat="44.37033" lon="3.8013">
        <ele>1315</ele>
        <time>2009-07-10T14:00:38Z</time>
      </trkpt>
      <trkpt lat="44.37052" lon="3.80154">
        <ele>1316</ele>
        <time>2009-07-10T14:00:49Z</time>
      </trkpt>
      <trkpt lat="44.37079" lon="3.80189">
        <ele>1314</ele>
        <time>2009-07-10T14:01:02Z</time>
      </trkpt>
      <trkpt lat="44.37104" lon="3.80222">
        <ele>1315</ele>
        <time>2009-07-10T14:01:15Z</time>
      </trkpt>
      <trkpt lat="44.37126" lon="3.80258">
        <ele>1317</ele>
        <time>2009-07-10T14:01:28Z</time>
      </trkpt>
      <trkpt lat="44.37142" lon="3.80298">
        <ele>1318</ele>
        <time>2009-07-10T14:01:41Z</time>
      </trkpt>
      <trkpt lat="44.37149" lon="3.80336">
        <ele>1319</ele>
        <time>2009-07-10T14:01:52Z</time>
      </trkpt>
      <trkpt lat="44.37165" lon="3.80376">
        <ele>1319</ele>
        <time>2009-07-10T14:02:04Z</time>
      </trkpt>
      <trkpt lat="44.37168" lon="3.80382">
        <ele>1319</ele>
        <time>2009-07-10T14:02:17Z</time>
      </trkpt>
      <trkpt lat="44.37171" lon="3.80385">
        <ele>1319</ele>
        <time>2009-07-10T14:02:20Z</time>
      </trkpt>
      <trkpt lat="44.37175" lon="3.80394">
        <ele>1319</ele>
        <time>2009-07-10T14:02:24Z</time>
      </trkpt>
      <trkpt lat="44.37188" lon="3.80431">
        <ele>1319</ele>
        <time>2009-07-10T14:02:38Z</time>
      </trkpt>
      <trkpt lat="44.37191" lon="3.80471">
        <ele>1322</ele>
        <time>2009-07-10T14:02:52Z</time>
      </trkpt>
      <trkpt lat="44.37198" lon="3.80514">
        <ele>1323</ele>
        <time>2009-07-10T14:03:05Z</time>
      </trkpt>
      <trkpt lat="44.37207" lon="3.80556">
        <ele>1323</ele>
        <time>2009-07-10T14:03:18Z</time>
      </trkpt>
      <trkpt lat="44.37206" lon="3.80594">
        <ele>1325</ele>
        <time>2009-07-10T14:03:31Z</time>
      </trkpt>
      <trkpt lat="44.37203" lon="3.80597">
        <ele>1326</ele>
        <time>2009-07-10T14:03:34Z</time>
      </trkpt>
      <trkpt lat="44.37193" lon="3.80618">
        <ele>1328</ele>
        <time>2009-07-10T14:03:46Z</time>
      </trkpt>
      <trkpt lat="44.37186" lon="3.80657">
        <ele>1328</ele>
        <time>2009-07-10T14:03:58Z</time>
      </trkpt>
      <trkpt lat="44.37175" lon="3.80681">
        <ele>1327</ele>
        <time>2009-07-10T14:04:10Z</time>
      </trkpt>
      <trkpt lat="44.37161" lon="3.80701">
        <ele>1327</ele>
        <time>2009-07-10T14:04:27Z</time>
      </trkpt>
      <trkpt lat="44.37148" lon="3.80713">
        <ele>1327</ele>
        <time>2009-07-10T14:04:47Z</time>
      </trkpt>
      <trkpt lat="44.37135" lon="3.8073">
        <ele>1324</ele>
        <time>2009-07-10T14:04:53Z</time>
      </trkpt>
      <trkpt lat="44.3712" lon="3.80764">
        <ele>1324</ele>
        <time>2009-07-10T14:05:01Z</time>
      </trkpt>
      <trkpt lat="44.37119" lon="3.80773">
        <ele>1326</ele>
        <time>2009-07-10T14:05:05Z</time>
      </trkpt>
      <trkpt lat="44.37109" lon="3.80806">
        <ele>1326</ele>
        <time>2009-07-10T14:05:15Z</time>
      </trkpt>
      <trkpt lat="44.37097" lon="3.80827">
        <ele>1326</ele>
        <time>2009-07-10T14:05:22Z</time>
      </trkpt>
      <trkpt lat="44.37089" lon="3.80844">
        <ele>1326</ele>
        <time>2009-07-10T14:05:28Z</time>
      </trkpt>
      <trkpt lat="44.37084" lon="3.80856">
        <ele>1325</ele>
        <time>2009-07-10T14:05:32Z</time>
      </trkpt>
      <trkpt lat="44.37074" lon="3.80864">
        <ele>1325</ele>
        <time>2009-07-10T14:05:36Z</time>
      </trkpt>
      <trkpt lat="44.37061" lon="3.8088">
        <ele>1325</ele>
        <time>2009-07-10T14:05:43Z</time>
      </trkpt>
      <trkpt lat="44.37046" lon="3.80896">
        <ele>1325</ele>
        <time>2009-07-10T14:05:53Z</time>
      </trkpt>
      <trkpt lat="44.37035" lon="3.80901">
        <ele>1325</ele>
        <time>2009-07-10T14:05:58Z</time>
      </trkpt>
      <trkpt lat="44.37032" lon="3.80903">
        <ele>1324</ele>
        <time>2009-07-10T14:06:00Z</time>
      </trkpt>
      <trkpt lat="44.37028" lon="3.80908">
        <ele>1324</ele>
        <time>2009-07-10T14:06:09Z</time>
      </trkpt>
      <trkpt lat="44.37026" lon="3.80909">
        <ele>1324</ele>
        <time>2009-07-10T14:06:12Z</time>
      </trkpt>
      <trkpt lat="44.37016" lon="3.80919">
        <ele>1323</ele>
        <time>2009-07-10T14:06:25Z</time>
      </trkpt>
      <trkpt lat="44.37013" lon="3.80925">
        <ele>1324</ele>
        <time>2009-07-10T14:06:35Z</time>
      </trkpt>
      <trkpt lat="44.37017" lon="3.80937">
        <ele>1325</ele>
        <time>2009-07-10T14:06:51Z</time>
      </trkpt>
      <trkpt lat="44.37017" lon="3.80938">
        <ele>1324</ele>
        <time>2009-07-10T14:06:55Z</time>
      </trkpt>
      <trkpt lat="44.37012" lon="3.80959">
        <ele>1324</ele>
        <time>2009-07-10T14:07:03Z</time>
      </trkpt>
      <trkpt lat="44.37011" lon="3.80991">
        <ele>1326</ele>
        <time>2009-07-10T14:07:12Z</time>
      </trkpt>
      <trkpt lat="44.37011" lon="3.80994">
        <ele>1326</ele>
        <time>2009-07-10T14:07:13Z</time>
      </trkpt>
      <trkpt lat="44.37003" lon="3.81053">
        <ele>1327</ele>
        <time>2009-07-10T14:07:29Z</time>
      </trkpt>
      <trkpt lat="44.37007" lon="3.81107">
        <ele>1327</ele>
        <time>2009-07-10T14:07:42Z</time>
      </trkpt>
      <trkpt lat="44.37003" lon="3.81153">
        <ele>1328</ele>
        <time>2009-07-10T14:07:53Z</time>
      </trkpt>
      <trkpt lat="44.36994" lon="3.81199">
        <ele>1327</ele>
        <time>2009-07-10T14:08:04Z</time>
      </trkpt>
      <trkpt lat="44.36994" lon="3.81204">
        <ele>1327</ele>
        <time>2009-07-10T14:08:05Z</time>
      </trkpt>
      <trkpt lat="44.36976" lon="3.81223">
        <ele>1327</ele>
        <time>2009-07-10T14:08:13Z</time>
      </trkpt>
      <trkpt lat="44.36937" lon="3.81249">
        <ele>1327</ele>
        <time>2009-07-10T14:08:26Z</time>
      </trkpt>
      <trkpt lat="44.36897" lon="3.81285">
        <ele>1328</ele>
        <time>2009-07-10T14:08:41Z</time>
      </trkpt>
      <trkpt lat="44.36883" lon="3.8129">
        <ele>1328</ele>
        <time>2009-07-10T14:08:45Z</time>
      </trkpt>
      <trkpt lat="44.36866" lon="3.81321">
        <ele>1327</ele>
        <time>2009-07-10T14:08:54Z</time>
      </trkpt>
      <trkpt lat="44.36846" lon="3.81346">
        <ele>1327</ele>
        <time>2009-07-10T14:09:04Z</time>
      </trkpt>
      <trkpt lat="44.36843" lon="3.8135">
        <ele>1327</ele>
        <time>2009-07-10T14:09:05Z</time>
      </trkpt>
      <trkpt lat="44.36833" lon="3.8137">
        <ele>1329</ele>
        <time>2009-07-10T14:09:13Z</time>
      </trkpt>
      <trkpt lat="44.36831" lon="3.81381">
        <ele>1330</ele>
        <time>2009-07-10T14:09:16Z</time>
      </trkpt>
      <trkpt lat="44.36827" lon="3.81392">
        <ele>1330</ele>
        <time>2009-07-10T14:09:19Z</time>
      </trkpt>
      <trkpt lat="44.36828" lon="3.81414">
        <ele>1330</ele>
        <time>2009-07-10T14:09:25Z</time>
      </trkpt>
      <trkpt lat="44.36828" lon="3.81433">
        <ele>1331</ele>
        <time>2009-07-10T14:09:30Z</time>
      </trkpt>
      <trkpt lat="44.3683" lon="3.81463">
        <ele>1329</ele>
        <time>2009-07-10T14:09:40Z</time>
      </trkpt>
      <trkpt lat="44.36837" lon="3.81481">
        <ele>1329</ele>
        <time>2009-07-10T14:09:48Z</time>
      </trkpt>
      <trkpt lat="44.36847" lon="3.81491">
        <ele>1328</ele>
        <time>2009-07-10T14:09:51Z</time>
      </trkpt>
      <trkpt lat="44.3685" lon="3.81495">
        <ele>1329</ele>
        <time>2009-07-10T14:09:53Z</time>
      </trkpt>
      <trkpt lat="44.36851" lon="3.81497">
        <ele>1329</ele>
        <time>2009-07-10T14:09:55Z</time>
      </trkpt>
      <trkpt lat="44.36853" lon="3.81506">
        <ele>1329</ele>
        <time>2009-07-10T14:10:00Z</time>
      </trkpt>
      <trkpt lat="44.36857" lon="3.81512">
        <ele>1329</ele>
        <time>2009-07-10T14:10:02Z</time>
      </trkpt>
      <trkpt lat="44.36871" lon="3.81521">
        <ele>1327</ele>
        <time>2009-07-10T14:10:06Z</time>
      </trkpt>
      <trkpt lat="44.36882" lon="3.81535">
        <ele>1327</ele>
        <time>2009-07-10T14:10:11Z</time>
      </trkpt>
      <trkpt lat="44.36898" lon="3.81542">
        <ele>1328</ele>
        <time>2009-07-10T14:10:16Z</time>
      </trkpt>
      <trkpt lat="44.36943" lon="3.81566">
        <ele>1327</ele>
        <time>2009-07-10T14:10:30Z</time>
      </trkpt>
      <trkpt lat="44.36995" lon="3.81592">
        <ele>1327</ele>
        <time>2009-07-10T14:10:46Z</time>
      </trkpt>
      <trkpt lat="44.37022" lon="3.8161">
        <ele>1328</ele>
        <time>2009-07-10T14:10:56Z</time>
      </trkpt>
      <trkpt lat="44.37029" lon="3.8163">
        <ele>1328</ele>
        <time>2009-07-10T14:11:01Z</time>
      </trkpt>
      <trkpt lat="44.37041" lon="3.8164">
        <ele>1328</ele>
        <time>2009-07-10T14:11:06Z</time>
      </trkpt>
      <trkpt lat="44.37056" lon="3.81649">
        <ele>1327</ele>
        <time>2009-07-10T14:11:11Z</time>
      </trkpt>
      <trkpt lat="44.37102" lon="3.81677">
        <ele>1329</ele>
        <time>2009-07-10T14:11:27Z</time>
      </trkpt>
      <trkpt lat="44.37128" lon="3.81713">
        <ele>1329</ele>
        <time>2009-07-10T14:11:39Z</time>
      </trkpt>
      <trkpt lat="44.37162" lon="3.81762">
        <ele>1329</ele>
        <time>2009-07-10T14:11:55Z</time>
      </trkpt>
      <trkpt lat="44.37174" lon="3.8181">
        <ele>1330</ele>
        <time>2009-07-10T14:12:06Z</time>
      </trkpt>
      <trkpt lat="44.37161" lon="3.81868">
        <ele>1329</ele>
        <time>2009-07-10T14:12:19Z</time>
      </trkpt>
      <trkpt lat="44.37158" lon="3.81874">
        <ele>1329</ele>
        <time>2009-07-10T14:12:23Z</time>
      </trkpt>
      <trkpt lat="44.3715" lon="3.81876">
        <ele>1330</ele>
        <time>2009-07-10T14:12:28Z</time>
      </trkpt>
      <trkpt lat="44.37147" lon="3.81892">
        <ele>1330</ele>
        <time>2009-07-10T14:12:33Z</time>
      </trkpt>
      <trkpt lat="44.37141" lon="3.81945">
        <ele>1329</ele>
        <time>2009-07-10T14:12:45Z</time>
      </trkpt>
      <trkpt lat="44.37128" lon="3.81987">
        <ele>1329</ele>
        <time>2009-07-10T14:12:56Z</time>
      </trkpt>
      <trkpt lat="44.37126" lon="3.8202">
        <ele>1330</ele>
        <time>2009-07-10T14:13:05Z</time>
      </trkpt>
      <trkpt lat="44.37126" lon="3.8203">
        <ele>1329</ele>
        <time>2009-07-10T14:13:07Z</time>
      </trkpt>
      <trkpt lat="44.3714" lon="3.82074">
        <ele>1330</ele>
        <time>2009-07-10T14:13:17Z</time>
      </trkpt>
      <trkpt lat="44.37144" lon="3.82081">
        <ele>1331</ele>
        <time>2009-07-10T14:13:19Z</time>
      </trkpt>
      <trkpt lat="44.37161" lon="3.82119">
        <ele>1332</ele>
        <time>2009-07-10T14:13:30Z</time>
      </trkpt>
      <trkpt lat="44.37176" lon="3.82157">
        <ele>1331</ele>
        <time>2009-07-10T14:13:40Z</time>
      </trkpt>
      <trkpt lat="44.37191" lon="3.82185">
        <ele>1330</ele>
        <time>2009-07-10T14:13:50Z</time>
      </trkpt>
      <trkpt lat="44.37213" lon="3.82208">
        <ele>1330</ele>
        <time>2009-07-10T14:13:59Z</time>
      </trkpt>
      <trkpt lat="44.37223" lon="3.82214">
        <ele>1329</ele>
        <time>2009-07-10T14:14:03Z</time>
      </trkpt>
      <trkpt lat="44.37234" lon="3.82208">
        <ele>1328</ele>
        <time>2009-07-10T14:14:10Z</time>
      </trkpt>
      <trkpt lat="44.37237" lon="3.82212">
        <ele>1329</ele>
        <time>2009-07-10T14:14:27Z</time>
      </trkpt>
      <trkpt lat="44.37236" lon="3.8221">
        <ele>1329</ele>
        <time>2009-07-10T14:14:47Z</time>
      </trkpt>
      <trkpt lat="44.37234" lon="3.82211">
        <ele>1331</ele>
        <time>2009-07-10T14:15:52Z</time>
      </trkpt>
      <trkpt lat="44.37235" lon="3.82211">
        <ele>1330</ele>
        <time>2009-07-10T14:16:47Z</time>
      </trkpt>
      <trkpt lat="44.37235" lon="3.82212">
        <ele>1331</ele>
        <time>2009-07-10T14:17:23Z</time>
      </trkpt>
      <trkpt lat="44.37234" lon="3.82215">
        <ele>1331</ele>
        <time>2009-07-10T14:17:38Z</time>
      </trkpt>
      <trkpt lat="44.37234" lon="3.8222">
        <ele>1332</ele>
        <time>2009-07-10T14:17:41Z</time>
      </trkpt>
      <trkpt lat="44.37251" lon="3.82253">
        <ele>1332</ele>
        <time>2009-07-10T14:17:56Z</time>
      </trkpt>
      <trkpt lat="44.37283" lon="3.82267">
        <ele>1333</ele>
        <time>2009-07-10T14:18:10Z</time>
      </trkpt>
      <trkpt lat="44.37317" lon="3.82272">
        <ele>1333</ele>
        <time>2009-07-10T14:18:22Z</time>
      </trkpt>
      <trkpt lat="44.37349" lon="3.82277">
        <ele>1333</ele>
        <time>2009-07-10T14:18:34Z</time>
      </trkpt>
      <trkpt lat="44.37377" lon="3.82284">
        <ele>1333</ele>
        <time>2009-07-10T14:18:47Z</time>
      </trkpt>
      <trkpt lat="44.37424" lon="3.82327">
        <ele>1333</ele>
        <time>2009-07-10T14:19:07Z</time>
      </trkpt>
      <trkpt lat="44.37461" lon="3.82367">
        <ele>1336</ele>
        <time>2009-07-10T14:19:23Z</time>
      </trkpt>
      <trkpt lat="44.37464" lon="3.82369">
        <ele>1336</ele>
        <time>2009-07-10T14:19:24Z</time>
      </trkpt>
      <trkpt lat="44.37501" lon="3.82408">
        <ele>1337</ele>
        <time>2009-07-10T14:19:39Z</time>
      </trkpt>
      <trkpt lat="44.37553" lon="3.82465">
        <ele>1337</ele>
        <time>2009-07-10T14:19:56Z</time>
      </trkpt>
      <trkpt lat="44.37572" lon="3.82491">
        <ele>1337</ele>
        <time>2009-07-10T14:20:03Z</time>
      </trkpt>
      <trkpt lat="44.37584" lon="3.82556">
        <ele>1339</ele>
        <time>2009-07-10T14:20:16Z</time>
      </trkpt>
      <trkpt lat="44.37568" lon="3.82625">
        <ele>1340</ele>
        <time>2009-07-10T14:20:31Z</time>
      </trkpt>
      <trkpt lat="44.37563" lon="3.82635">
        <ele>1340</ele>
        <time>2009-07-10T14:20:33Z</time>
      </trkpt>
      <trkpt lat="44.37556" lon="3.82655">
        <ele>1341</ele>
        <time>2009-07-10T14:20:37Z</time>
      </trkpt>
      <trkpt lat="44.37527" lon="3.82731">
        <ele>1342</ele>
        <time>2009-07-10T14:20:53Z</time>
      </trkpt>
      <trkpt lat="44.37521" lon="3.82738">
        <ele>1342</ele>
        <time>2009-07-10T14:20:55Z</time>
      </trkpt>
      <trkpt lat="44.37483" lon="3.82763">
        <ele>1343</ele>
        <time>2009-07-10T14:21:07Z</time>
      </trkpt>
      <trkpt lat="44.37435" lon="3.82777">
        <ele>1345</ele>
        <time>2009-07-10T14:21:22Z</time>
      </trkpt>
      <trkpt lat="44.3739" lon="3.82807">
        <ele>1347</ele>
        <time>2009-07-10T14:21:38Z</time>
      </trkpt>
      <trkpt lat="44.3738" lon="3.82856">
        <ele>1349</ele>
        <time>2009-07-10T14:21:50Z</time>
      </trkpt>
      <trkpt lat="44.37406" lon="3.82908">
        <ele>1350</ele>
        <time>2009-07-10T14:22:04Z</time>
      </trkpt>
      <trkpt lat="44.3744" lon="3.82967">
        <ele>1351</ele>
        <time>2009-07-10T14:22:21Z</time>
      </trkpt>
      <trkpt lat="44.37461" lon="3.83023">
        <ele>1353</ele>
        <time>2009-07-10T14:22:35Z</time>
      </trkpt>
      <trkpt lat="44.37468" lon="3.8307">
        <ele>1354</ele>
        <time>2009-07-10T14:22:46Z</time>
      </trkpt>
      <trkpt lat="44.37468" lon="3.83137">
        <ele>1357</ele>
        <time>2009-07-10T14:23:01Z</time>
      </trkpt>
      <trkpt lat="44.37454" lon="3.83204">
        <ele>1358</ele>
        <time>2009-07-10T14:23:16Z</time>
      </trkpt>
      <trkpt lat="44.37425" lon="3.83264">
        <ele>1357</ele>
        <time>2009-07-10T14:23:30Z</time>
      </trkpt>
      <trkpt lat="44.37395" lon="3.83334">
        <ele>1358</ele>
        <time>2009-07-10T14:23:45Z</time>
      </trkpt>
      <trkpt lat="44.37362" lon="3.83394">
        <ele>1358</ele>
        <time>2009-07-10T14:23:59Z</time>
      </trkpt>
      <trkpt lat="44.37322" lon="3.83465">
        <ele>1361</ele>
        <time>2009-07-10T14:24:17Z</time>
      </trkpt>
      <trkpt lat="44.37337" lon="3.83502">
        <ele>1362</ele>
        <time>2009-07-10T14:24:29Z</time>
      </trkpt>
      <trkpt lat="44.3734" lon="3.83504">
        <ele>1362</ele>
        <time>2009-07-10T14:24:42Z</time>
      </trkpt>
      <trkpt lat="44.37344" lon="3.83503">
        <ele>1362</ele>
        <time>2009-07-10T14:25:01Z</time>
      </trkpt>
      <trkpt lat="44.37341" lon="3.83506">
        <ele>1363</ele>
        <time>2009-07-10T14:25:40Z</time>
      </trkpt>
      <trkpt lat="44.37355" lon="3.83506">
        <ele>1364</ele>
        <time>2009-07-10T14:26:03Z</time>
      </trkpt>
      <trkpt lat="44.3739" lon="3.83485">
        <ele>1366</ele>
        <time>2009-07-10T14:26:16Z</time>
      </trkpt>
      <trkpt lat="44.37432" lon="3.83484">
        <ele>1367</ele>
        <time>2009-07-10T14:26:31Z</time>
      </trkpt>
      <trkpt lat="44.37479" lon="3.83508">
        <ele>1369</ele>
        <time>2009-07-10T14:26:48Z</time>
      </trkpt>
      <trkpt lat="44.37529" lon="3.83538">
        <ele>1370</ele>
        <time>2009-07-10T14:27:06Z</time>
      </trkpt>
      <trkpt lat="44.37532" lon="3.83542">
        <ele>1371</ele>
        <time>2009-07-10T14:27:21Z</time>
      </trkpt>
      <trkpt lat="44.37544" lon="3.83554">
        <ele>1372</ele>
        <time>2009-07-10T14:27:45Z</time>
      </trkpt>
      <trkpt lat="44.37548" lon="3.83559">
        <ele>1372</ele>
        <time>2009-07-10T14:28:00Z</time>
      </trkpt>
      <trkpt lat="44.37548" lon="3.83558">
        <ele>1372</ele>
        <time>2009-07-10T14:28:01Z</time>
      </trkpt>
      <trkpt lat="44.37521" lon="3.83534">
        <ele>1371</ele>
        <time>2009-07-10T14:28:12Z</time>
      </trkpt>
      <trkpt lat="44.37476" lon="3.83508">
        <ele>1370</ele>
        <time>2009-07-10T14:28:23Z</time>
      </trkpt>
      <trkpt lat="44.37453" lon="3.83491">
        <ele>1369</ele>
        <time>2009-07-10T14:28:29Z</time>
      </trkpt>
      <trkpt lat="44.37433" lon="3.83484">
        <ele>1368</ele>
        <time>2009-07-10T14:28:33Z</time>
      </trkpt>
      <trkpt lat="44.37415" lon="3.83481">
        <ele>1368</ele>
        <time>2009-07-10T14:28:37Z</time>
      </trkpt>
      <trkpt lat="44.37395" lon="3.83482">
        <ele>1365</ele>
        <time>2009-07-10T14:28:41Z</time>
      </trkpt>
      <trkpt lat="44.37353" lon="3.83504">
        <ele>1364</ele>
        <time>2009-07-10T14:28:52Z</time>
      </trkpt>
      <trkpt lat="44.37335" lon="3.83498">
        <ele>1362</ele>
        <time>2009-07-10T14:28:58Z</time>
      </trkpt>
      <trkpt lat="44.37326" lon="3.83482">
        <ele>1361</ele>
        <time>2009-07-10T14:29:03Z</time>
      </trkpt>
      <trkpt lat="44.3733" lon="3.83471">
        <ele>1360</ele>
        <time>2009-07-10T14:29:08Z</time>
      </trkpt>
      <trkpt lat="44.37353" lon="3.83467">
        <ele>1358</ele>
        <time>2009-07-10T14:29:17Z</time>
      </trkpt>
      <trkpt lat="44.37362" lon="3.83463">
        <ele>1358</ele>
        <time>2009-07-10T14:29:21Z</time>
      </trkpt>
      <trkpt lat="44.37373" lon="3.83446">
        <ele>1357</ele>
        <time>2009-07-10T14:29:25Z</time>
      </trkpt>
      <trkpt lat="44.3739" lon="3.83431">
        <ele>1357</ele>
        <time>2009-07-10T14:29:30Z</time>
      </trkpt>
      <trkpt lat="44.37409" lon="3.83423">
        <ele>1355</ele>
        <time>2009-07-10T14:29:35Z</time>
      </trkpt>
      <trkpt lat="44.37428" lon="3.83422">
        <ele>1354</ele>
        <time>2009-07-10T14:29:39Z</time>
      </trkpt>
      <trkpt lat="44.37447" lon="3.83419">
        <ele>1354</ele>
        <time>2009-07-10T14:29:43Z</time>
      </trkpt>
      <trkpt lat="44.37456" lon="3.83415">
        <ele>1351</ele>
        <time>2009-07-10T14:29:45Z</time>
      </trkpt>
      <trkpt lat="44.37466" lon="3.83414">
        <ele>1350</ele>
        <time>2009-07-10T14:29:47Z</time>
      </trkpt>
      <trkpt lat="44.37471" lon="3.83414">
        <ele>1351</ele>
        <time>2009-07-10T14:29:48Z</time>
      </trkpt>
      <trkpt lat="44.3749" lon="3.83417">
        <ele>1351</ele>
        <time>2009-07-10T14:29:52Z</time>
      </trkpt>
      <trkpt lat="44.37554" lon="3.83414">
        <ele>1351</ele>
        <time>2009-07-10T14:30:08Z</time>
      </trkpt>
      <trkpt lat="44.37568" lon="3.83409">
        <ele>1352</ele>
        <time>2009-07-10T14:30:12Z</time>
      </trkpt>
      <trkpt lat="44.3758" lon="3.83402">
        <ele>1352</ele>
        <time>2009-07-10T14:30:17Z</time>
      </trkpt>
      <trkpt lat="44.37612" lon="3.834">
        <ele>1353</ele>
        <time>2009-07-10T14:30:28Z</time>
      </trkpt>
      <trkpt lat="44.37656" lon="3.83402">
        <ele>1354</ele>
        <time>2009-07-10T14:30:43Z</time>
      </trkpt>
      <trkpt lat="44.3769" lon="3.83411">
        <ele>1354</ele>
        <time>2009-07-10T14:30:54Z</time>
      </trkpt>
      <trkpt lat="44.37719" lon="3.8342">
        <ele>1354</ele>
        <time>2009-07-10T14:31:04Z</time>
      </trkpt>
      <trkpt lat="44.37732" lon="3.83425">
        <ele>1352</ele>
        <time>2009-07-10T14:31:08Z</time>
      </trkpt>
      <trkpt lat="44.37772" lon="3.83436">
        <ele>1354</ele>
        <time>2009-07-10T14:31:21Z</time>
      </trkpt>
      <trkpt lat="44.37778" lon="3.8344">
        <ele>1355</ele>
        <time>2009-07-10T14:31:23Z</time>
      </trkpt>
      <trkpt lat="44.37788" lon="3.83444">
        <ele>1355</ele>
        <time>2009-07-10T14:31:27Z</time>
      </trkpt>
      <trkpt lat="44.37821" lon="3.83443">
        <ele>1354</ele>
        <time>2009-07-10T14:31:37Z</time>
      </trkpt>
      <trkpt lat="44.37831" lon="3.83435">
        <ele>1353</ele>
        <time>2009-07-10T14:31:40Z</time>
      </trkpt>
      <trkpt lat="44.37839" lon="3.83433">
        <ele>1353</ele>
        <time>2009-07-10T14:31:45Z</time>
      </trkpt>
      <trkpt lat="44.37842" lon="3.83433">
        <ele>1354</ele>
        <time>2009-07-10T14:31:50Z</time>
      </trkpt>
      <trkpt lat="44.37843" lon="3.83434">
        <ele>1353</ele>
        <time>2009-07-10T14:31:53Z</time>
      </trkpt>
      <trkpt lat="44.37851" lon="3.8343">
        <ele>1354</ele>
        <time>2009-07-10T14:32:07Z</time>
      </trkpt>
      <trkpt lat="44.37849" lon="3.83429">
        <ele>1353</ele>
        <time>2009-07-10T14:33:33Z</time>
      </trkpt>
      <trkpt lat="44.3785" lon="3.83428">
        <ele>1353</ele>
        <time>2009-07-10T14:34:18Z</time>
      </trkpt>
      <trkpt lat="44.37852" lon="3.83427">
        <ele>1353</ele>
        <time>2009-07-10T14:34:35Z</time>
      </trkpt>
      <trkpt lat="44.37852" lon="3.83427">
        <ele>1354</ele>
        <time>2009-07-10T14:34:43Z</time>
      </trkpt>
      <trkpt lat="44.37869" lon="3.8343">
        <ele>1354</ele>
        <time>2009-07-10T14:34:54Z</time>
      </trkpt>
      <trkpt lat="44.37883" lon="3.83472">
        <ele>1356</ele>
        <time>2009-07-10T14:35:09Z</time>
      </trkpt>
      <trkpt lat="44.37897" lon="3.83486">
        <ele>1358</ele>
        <time>2009-07-10T14:35:16Z</time>
      </trkpt>
      <trkpt lat="44.3792" lon="3.83507">
        <ele>1358</ele>
        <time>2009-07-10T14:35:29Z</time>
      </trkpt>
      <trkpt lat="44.37942" lon="3.83527">
        <ele>1361</ele>
        <time>2009-07-10T14:35:44Z</time>
      </trkpt>
      <trkpt lat="44.37944" lon="3.83527">
        <ele>1361</ele>
        <time>2009-07-10T14:35:47Z</time>
      </trkpt>
      <trkpt lat="44.37964" lon="3.83521">
        <ele>1364</ele>
        <time>2009-07-10T14:35:59Z</time>
      </trkpt>
      <trkpt lat="44.37993" lon="3.83517">
        <ele>1366</ele>
        <time>2009-07-10T14:36:13Z</time>
      </trkpt>
      <trkpt lat="44.3801" lon="3.8351">
        <ele>1368</ele>
        <time>2009-07-10T14:36:21Z</time>
      </trkpt>
      <trkpt lat="44.38046" lon="3.83485">
        <ele>1367</ele>
        <time>2009-07-10T14:36:38Z</time>
      </trkpt>
      <trkpt lat="44.38093" lon="3.83463">
        <ele>1368</ele>
        <time>2009-07-10T14:36:57Z</time>
      </trkpt>
      <trkpt lat="44.38146" lon="3.83452">
        <ele>1371</ele>
        <time>2009-07-10T14:37:18Z</time>
      </trkpt>
      <trkpt lat="44.3817" lon="3.83451">
        <ele>1371</ele>
        <time>2009-07-10T14:37:33Z</time>
      </trkpt>
      <trkpt lat="44.38179" lon="3.83455">
        <ele>1372</ele>
        <time>2009-07-10T14:37:45Z</time>
      </trkpt>
      <trkpt lat="44.38179" lon="3.83455">
        <ele>1371</ele>
        <time>2009-07-10T14:38:07Z</time>
      </trkpt>
      <trkpt lat="44.38176" lon="3.83457">
        <ele>1374</ele>
        <time>2009-07-10T14:39:14Z</time>
      </trkpt>
      <trkpt lat="44.38175" lon="3.83458">
        <ele>1374</ele>
        <time>2009-07-10T14:39:16Z</time>
      </trkpt>
      <trkpt lat="44.38184" lon="3.83495">
        <ele>1373</ele>
        <time>2009-07-10T14:39:31Z</time>
      </trkpt>
      <trkpt lat="44.38176" lon="3.83534">
        <ele>1375</ele>
        <time>2009-07-10T14:39:44Z</time>
      </trkpt>
      <trkpt lat="44.38181" lon="3.83577">
        <ele>1374</ele>
        <time>2009-07-10T14:39:56Z</time>
      </trkpt>
      <trkpt lat="44.38208" lon="3.83612">
        <ele>1374</ele>
        <time>2009-07-10T14:40:09Z</time>
      </trkpt>
      <trkpt lat="44.38226" lon="3.83667">
        <ele>1373</ele>
        <time>2009-07-10T14:40:21Z</time>
      </trkpt>
      <trkpt lat="44.3824" lon="3.83746">
        <ele>1370</ele>
        <time>2009-07-10T14:40:32Z</time>
      </trkpt>
      <trkpt lat="44.38253" lon="3.83788">
        <ele>1370</ele>
        <time>2009-07-10T14:40:38Z</time>
      </trkpt>
      <trkpt lat="44.38254" lon="3.83817">
        <ele>1369</ele>
        <time>2009-07-10T14:40:42Z</time>
      </trkpt>
      <trkpt lat="44.3825" lon="3.83859">
        <ele>1368</ele>
        <time>2009-07-10T14:40:47Z</time>
      </trkpt>
      <trkpt lat="44.38254" lon="3.83949">
        <ele>1368</ele>
        <time>2009-07-10T14:40:59Z</time>
      </trkpt>
      <trkpt lat="44.38245" lon="3.84017">
        <ele>1370</ele>
        <time>2009-07-10T14:41:15Z</time>
      </trkpt>
      <trkpt lat="44.38239" lon="3.84085">
        <ele>1372</ele>
        <time>2009-07-10T14:41:32Z</time>
      </trkpt>
      <trkpt lat="44.38269" lon="3.84119">
        <ele>1373</ele>
        <time>2009-07-10T14:41:45Z</time>
      </trkpt>
      <trkpt lat="44.38281" lon="3.84158">
        <ele>1374</ele>
        <time>2009-07-10T14:41:57Z</time>
      </trkpt>
      <trkpt lat="44.38261" lon="3.84206">
        <ele>1374</ele>
        <time>2009-07-10T14:42:11Z</time>
      </trkpt>
      <trkpt lat="44.38234" lon="3.84206">
        <ele>1376</ele>
        <time>2009-07-10T14:42:21Z</time>
      </trkpt>
      <trkpt lat="44.38194" lon="3.8421">
        <ele>1378</ele>
        <time>2009-07-10T14:42:36Z</time>
      </trkpt>
      <trkpt lat="44.38157" lon="3.8421">
        <ele>1382</ele>
        <time>2009-07-10T14:42:50Z</time>
      </trkpt>
      <trkpt lat="44.38114" lon="3.84207">
        <ele>1383</ele>
        <time>2009-07-10T14:43:06Z</time>
      </trkpt>
      <trkpt lat="44.38075" lon="3.84229">
        <ele>1386</ele>
        <time>2009-07-10T14:43:22Z</time>
      </trkpt>
      <trkpt lat="44.38052" lon="3.84273">
        <ele>1388</ele>
        <time>2009-07-10T14:43:37Z</time>
      </trkpt>
      <trkpt lat="44.38025" lon="3.84333">
        <ele>1390</ele>
        <time>2009-07-10T14:43:56Z</time>
      </trkpt>
      <trkpt lat="44.38015" lon="3.84391">
        <ele>1392</ele>
        <time>2009-07-10T14:44:12Z</time>
      </trkpt>
      <trkpt lat="44.38018" lon="3.84463">
        <ele>1395</ele>
        <time>2009-07-10T14:44:31Z</time>
      </trkpt>
      <trkpt lat="44.38025" lon="3.84503">
        <ele>1397</ele>
        <time>2009-07-10T14:44:42Z</time>
      </trkpt>
      <trkpt lat="44.38032" lon="3.84533">
        <ele>1399</ele>
        <time>2009-07-10T14:44:50Z</time>
      </trkpt>
      <trkpt lat="44.38042" lon="3.84583">
        <ele>1402</ele>
        <time>2009-07-10T14:45:04Z</time>
      </trkpt>
      <trkpt lat="44.3807" lon="3.84625">
        <ele>1403</ele>
        <time>2009-07-10T14:45:19Z</time>
      </trkpt>
      <trkpt lat="44.38096" lon="3.84664">
        <ele>1404</ele>
        <time>2009-07-10T14:45:34Z</time>
      </trkpt>
      <trkpt lat="44.38121" lon="3.84706">
        <ele>1407</ele>
        <time>2009-07-10T14:45:49Z</time>
      </trkpt>
      <trkpt lat="44.38136" lon="3.84731">
        <ele>1409</ele>
        <time>2009-07-10T14:45:58Z</time>
      </trkpt>
      <trkpt lat="44.38148" lon="3.84778">
        <ele>1412</ele>
        <time>2009-07-10T14:46:12Z</time>
      </trkpt>
      <trkpt lat="44.38136" lon="3.84835">
        <ele>1414</ele>
        <time>2009-07-10T14:46:28Z</time>
      </trkpt>
      <trkpt lat="44.38122" lon="3.84897">
        <ele>1415</ele>
        <time>2009-07-10T14:46:46Z</time>
      </trkpt>
      <trkpt lat="44.38126" lon="3.84931">
        <ele>1417</ele>
        <time>2009-07-10T14:46:55Z</time>
      </trkpt>
      <trkpt lat="44.38147" lon="3.8499">
        <ele>1418</ele>
        <time>2009-07-10T14:47:11Z</time>
      </trkpt>
      <trkpt lat="44.38169" lon="3.85057">
        <ele>1419</ele>
        <time>2009-07-10T14:47:29Z</time>
      </trkpt>
      <trkpt lat="44.38195" lon="3.85085">
        <ele>1421</ele>
        <time>2009-07-10T14:47:41Z</time>
      </trkpt>
      <trkpt lat="44.38243" lon="3.8509">
        <ele>1423</ele>
        <time>2009-07-10T14:47:57Z</time>
      </trkpt>
      <trkpt lat="44.38284" lon="3.85079">
        <ele>1423</ele>
        <time>2009-07-10T14:48:11Z</time>
      </trkpt>
      <trkpt lat="44.38324" lon="3.85086">
        <ele>1424</ele>
        <time>2009-07-10T14:48:24Z</time>
      </trkpt>
      <trkpt lat="44.38366" lon="3.85088">
        <ele>1426</ele>
        <time>2009-07-10T14:48:38Z</time>
      </trkpt>
      <trkpt lat="44.38419" lon="3.85119">
        <ele>1428</ele>
        <time>2009-07-10T14:48:56Z</time>
      </trkpt>
      <trkpt lat="44.38473" lon="3.85155">
        <ele>1429</ele>
        <time>2009-07-10T14:49:16Z</time>
      </trkpt>
      <trkpt lat="44.38483" lon="3.85192">
        <ele>1430</ele>
        <time>2009-07-10T14:49:27Z</time>
      </trkpt>
      <trkpt lat="44.38467" lon="3.85241">
        <ele>1431</ele>
        <time>2009-07-10T14:49:40Z</time>
      </trkpt>
      <trkpt lat="44.3842" lon="3.85263">
        <ele>1433</ele>
        <time>2009-07-10T14:49:55Z</time>
      </trkpt>
      <trkpt lat="44.38385" lon="3.8529">
        <ele>1436</ele>
        <time>2009-07-10T14:50:08Z</time>
      </trkpt>
      <trkpt lat="44.3836" lon="3.85309">
        <ele>1440</ele>
        <time>2009-07-10T14:50:18Z</time>
      </trkpt>
      <trkpt lat="44.38357" lon="3.8531">
        <ele>1439</ele>
        <time>2009-07-10T14:50:29Z</time>
      </trkpt>
      <trkpt lat="44.38356" lon="3.85308">
        <ele>1439</ele>
        <time>2009-07-10T14:51:22Z</time>
      </trkpt>
      <trkpt lat="44.38355" lon="3.85307">
        <ele>1440</ele>
        <time>2009-07-10T14:52:41Z</time>
      </trkpt>
      <trkpt lat="44.38355" lon="3.85309">
        <ele>1438</ele>
        <time>2009-07-10T14:52:56Z</time>
      </trkpt>
      <trkpt lat="44.38339" lon="3.85326">
        <ele>1440</ele>
        <time>2009-07-10T14:53:07Z</time>
      </trkpt>
      <trkpt lat="44.38311" lon="3.85359">
        <ele>1444</ele>
        <time>2009-07-10T14:53:20Z</time>
      </trkpt>
      <trkpt lat="44.38296" lon="3.85408">
        <ele>1442</ele>
        <time>2009-07-10T14:53:33Z</time>
      </trkpt>
      <trkpt lat="44.38298" lon="3.85436">
        <ele>1440</ele>
        <time>2009-07-10T14:53:38Z</time>
      </trkpt>
      <trkpt lat="44.38301" lon="3.85463">
        <ele>1438</ele>
        <time>2009-07-10T14:53:42Z</time>
      </trkpt>
      <trkpt lat="44.38317" lon="3.85523">
        <ele>1435</ele>
        <time>2009-07-10T14:53:50Z</time>
      </trkpt>
      <trkpt lat="44.38323" lon="3.85548">
        <ele>1434</ele>
        <time>2009-07-10T14:53:53Z</time>
      </trkpt>
      <trkpt lat="44.38352" lon="3.85628">
        <ele>1435</ele>
        <time>2009-07-10T14:54:05Z</time>
      </trkpt>
      <trkpt lat="44.38363" lon="3.85696">
        <ele>1434</ele>
        <time>2009-07-10T14:54:15Z</time>
      </trkpt>
      <trkpt lat="44.38363" lon="3.85826">
        <ele>1435</ele>
        <time>2009-07-10T14:54:34Z</time>
      </trkpt>
      <trkpt lat="44.3836" lon="3.8595">
        <ele>1434</ele>
        <time>2009-07-10T14:54:51Z</time>
      </trkpt>
      <trkpt lat="44.38359" lon="3.86035">
        <ele>1433</ele>
        <time>2009-07-10T14:55:02Z</time>
      </trkpt>
      <trkpt lat="44.38357" lon="3.86078">
        <ele>1433</ele>
        <time>2009-07-10T14:55:08Z</time>
      </trkpt>
      <trkpt lat="44.38352" lon="3.8613">
        <ele>1435</ele>
        <time>2009-07-10T14:55:16Z</time>
      </trkpt>
      <trkpt lat="44.3835" lon="3.86142">
        <ele>1435</ele>
        <time>2009-07-10T14:55:18Z</time>
      </trkpt>
      <trkpt lat="44.38346" lon="3.86161">
        <ele>1438</ele>
        <time>2009-07-10T14:55:21Z</time>
      </trkpt>
      <trkpt lat="44.38346" lon="3.86173">
        <ele>1439</ele>
        <time>2009-07-10T14:55:23Z</time>
      </trkpt>
      <trkpt lat="44.38342" lon="3.86241">
        <ele>1440</ele>
        <time>2009-07-10T14:55:36Z</time>
      </trkpt>
      <trkpt lat="44.38359" lon="3.86301">
        <ele>1439</ele>
        <time>2009-07-10T14:55:48Z</time>
      </trkpt>
      <trkpt lat="44.38374" lon="3.86337">
        <ele>1438</ele>
        <time>2009-07-10T14:55:54Z</time>
      </trkpt>
      <trkpt lat="44.38389" lon="3.86394">
        <ele>1437</ele>
        <time>2009-07-10T14:56:02Z</time>
      </trkpt>
      <trkpt lat="44.38397" lon="3.86414">
        <ele>1436</ele>
        <time>2009-07-10T14:56:05Z</time>
      </trkpt>
      <trkpt lat="44.3841" lon="3.86438">
        <ele>1435</ele>
        <time>2009-07-10T14:56:09Z</time>
      </trkpt>
      <trkpt lat="44.3842" lon="3.86473">
        <ele>1435</ele>
        <time>2009-07-10T14:56:14Z</time>
      </trkpt>
      <trkpt lat="44.38414" lon="3.86524">
        <ele>1433</ele>
        <time>2009-07-10T14:56:21Z</time>
      </trkpt>
      <trkpt lat="44.38409" lon="3.86536">
        <ele>1433</ele>
        <time>2009-07-10T14:56:23Z</time>
      </trkpt>
      <trkpt lat="44.38409" lon="3.86569">
        <ele>1433</ele>
        <time>2009-07-10T14:56:28Z</time>
      </trkpt>
      <trkpt lat="44.38413" lon="3.86583">
        <ele>1431</ele>
        <time>2009-07-10T14:56:30Z</time>
      </trkpt>
      <trkpt lat="44.38426" lon="3.86607">
        <ele>1432</ele>
        <time>2009-07-10T14:56:34Z</time>
      </trkpt>
      <trkpt lat="44.38436" lon="3.86631">
        <ele>1431</ele>
        <time>2009-07-10T14:56:38Z</time>
      </trkpt>
      <trkpt lat="44.38468" lon="3.86672">
        <ele>1431</ele>
        <time>2009-07-10T14:56:48Z</time>
      </trkpt>
      <trkpt lat="44.38497" lon="3.86701">
        <ele>1432</ele>
        <time>2009-07-10T14:56:56Z</time>
      </trkpt>
      <trkpt lat="44.38549" lon="3.86757">
        <ele>1433</ele>
        <time>2009-07-10T14:57:12Z</time>
      </trkpt>
      <trkpt lat="44.38553" lon="3.86766">
        <ele>1434</ele>
        <time>2009-07-10T14:57:25Z</time>
      </trkpt>
      <trkpt lat="44.38552" lon="3.86782">
        <ele>1434</ele>
        <time>2009-07-10T14:57:31Z</time>
      </trkpt>
      <trkpt lat="44.38568" lon="3.86839">
        <ele>1433</ele>
        <time>2009-07-10T14:57:47Z</time>
      </trkpt>
      <trkpt lat="44.38571" lon="3.86879">
        <ele>1433</ele>
        <time>2009-07-10T14:58:00Z</time>
      </trkpt>
      <trkpt lat="44.38574" lon="3.86928">
        <ele>1437</ele>
        <time>2009-07-10T14:58:13Z</time>
      </trkpt>
      <trkpt lat="44.38575" lon="3.86969">
        <ele>1437</ele>
        <time>2009-07-10T14:58:23Z</time>
      </trkpt>
      <trkpt lat="44.38575" lon="3.86976">
        <ele>1436</ele>
        <time>2009-07-10T14:58:24Z</time>
      </trkpt>
      <trkpt lat="44.38579" lon="3.87006">
        <ele>1433</ele>
        <time>2009-07-10T14:58:28Z</time>
      </trkpt>
      <trkpt lat="44.38593" lon="3.87104">
        <ele>1430</ele>
        <time>2009-07-10T14:58:39Z</time>
      </trkpt>
      <trkpt lat="44.38611" lon="3.87138">
        <ele>1431</ele>
        <time>2009-07-10T14:58:45Z</time>
      </trkpt>
      <trkpt lat="44.38637" lon="3.87163">
        <ele>1432</ele>
        <time>2009-07-10T14:58:51Z</time>
      </trkpt>
      <trkpt lat="44.38645" lon="3.87208">
        <ele>1430</ele>
        <time>2009-07-10T14:58:57Z</time>
      </trkpt>
      <trkpt lat="44.38643" lon="3.87227">
        <ele>1429</ele>
        <time>2009-07-10T14:58:59Z</time>
      </trkpt>
      <trkpt lat="44.38643" lon="3.87236">
        <ele>1428</ele>
        <time>2009-07-10T14:59:00Z</time>
      </trkpt>
      <trkpt lat="44.38644" lon="3.87253">
        <ele>1429</ele>
        <time>2009-07-10T14:59:02Z</time>
      </trkpt>
      <trkpt lat="44.38642" lon="3.87279">
        <ele>1429</ele>
        <time>2009-07-10T14:59:06Z</time>
      </trkpt>
      <trkpt lat="44.38637" lon="3.87319">
        <ele>1430</ele>
        <time>2009-07-10T14:59:13Z</time>
      </trkpt>
      <trkpt lat="44.38633" lon="3.87336">
        <ele>1431</ele>
        <time>2009-07-10T14:59:16Z</time>
      </trkpt>
      <trkpt lat="44.38619" lon="3.87377">
        <ele>1429</ele>
        <time>2009-07-10T14:59:24Z</time>
      </trkpt>
      <trkpt lat="44.38611" lon="3.87424">
        <ele>1430</ele>
        <time>2009-07-10T14:59:32Z</time>
      </trkpt>
      <trkpt lat="44.38599" lon="3.87487">
        <ele>1432</ele>
        <time>2009-07-10T14:59:45Z</time>
      </trkpt>
      <trkpt lat="44.38594" lon="3.8751">
        <ele>1430</ele>
        <time>2009-07-10T14:59:54Z</time>
      </trkpt>
      <trkpt lat="44.38596" lon="3.87524">
        <ele>1429</ele>
        <time>2009-07-10T14:59:59Z</time>
      </trkpt>
      <trkpt lat="44.38601" lon="3.87545">
        <ele>1430</ele>
        <time>2009-07-10T15:00:10Z</time>
      </trkpt>
      <trkpt lat="44.38584" lon="3.87542">
        <ele>1429</ele>
        <time>2009-07-10T15:00:18Z</time>
      </trkpt>
      <trkpt lat="44.38575" lon="3.87541">
        <ele>1429</ele>
        <time>2009-07-10T15:00:21Z</time>
      </trkpt>
      <trkpt lat="44.38572" lon="3.8755">
        <ele>1428</ele>
        <time>2009-07-10T15:00:25Z</time>
      </trkpt>
      <trkpt lat="44.38576" lon="3.8756">
        <ele>1428</ele>
        <time>2009-07-10T15:00:28Z</time>
      </trkpt>
      <trkpt lat="44.38575" lon="3.8757">
        <ele>1427</ele>
        <time>2009-07-10T15:00:32Z</time>
      </trkpt>
      <trkpt lat="44.3858" lon="3.87566">
        <ele>1428</ele>
        <time>2009-07-10T15:00:39Z</time>
      </trkpt>
      <trkpt lat="44.38577" lon="3.87557">
        <ele>1428</ele>
        <time>2009-07-10T15:00:44Z</time>
      </trkpt>
      <trkpt lat="44.38555" lon="3.8756">
        <ele>1428</ele>
        <time>2009-07-10T15:00:54Z</time>
      </trkpt>
      <trkpt lat="44.38543" lon="3.87551">
        <ele>1426</ele>
        <time>2009-07-10T15:01:00Z</time>
      </trkpt>
      <trkpt lat="44.38529" lon="3.87544">
        <ele>1425</ele>
        <time>2009-07-10T15:01:05Z</time>
      </trkpt>
      <trkpt lat="44.38518" lon="3.87563">
        <ele>1423</ele>
        <time>2009-07-10T15:01:13Z</time>
      </trkpt>
      <trkpt lat="44.38521" lon="3.87572">
        <ele>1423</ele>
        <time>2009-07-10T15:01:15Z</time>
      </trkpt>
      <trkpt lat="44.38536" lon="3.87608">
        <ele>1423</ele>
        <time>2009-07-10T15:01:27Z</time>
      </trkpt>
      <trkpt lat="44.38537" lon="3.87608">
        <ele>1423</ele>
        <time>2009-07-10T15:01:37Z</time>
      </trkpt>
      <trkpt lat="44.38537" lon="3.87624">
        <ele>1422</ele>
        <time>2009-07-10T15:01:42Z</time>
      </trkpt>
      <trkpt lat="44.38537" lon="3.87635">
        <ele>1421</ele>
        <time>2009-07-10T15:01:44Z</time>
      </trkpt>
      <trkpt lat="44.38543" lon="3.87658">
        <ele>1420</ele>
        <time>2009-07-10T15:01:48Z</time>
      </trkpt>
      <trkpt lat="44.38544" lon="3.87686">
        <ele>1419</ele>
        <time>2009-07-10T15:01:52Z</time>
      </trkpt>
      <trkpt lat="44.38513" lon="3.87775">
        <ele>1417</ele>
        <time>2009-07-10T15:02:06Z</time>
      </trkpt>
      <trkpt lat="44.38495" lon="3.87816">
        <ele>1417</ele>
        <time>2009-07-10T15:02:13Z</time>
      </trkpt>
      <trkpt lat="44.38467" lon="3.87873">
        <ele>1418</ele>
        <time>2009-07-10T15:02:26Z</time>
      </trkpt>
      <trkpt lat="44.38447" lon="3.87948">
        <ele>1418</ele>
        <time>2009-07-10T15:02:41Z</time>
      </trkpt>
      <trkpt lat="44.38444" lon="3.88036">
        <ele>1419</ele>
        <time>2009-07-10T15:02:57Z</time>
      </trkpt>
      <trkpt lat="44.38426" lon="3.88139">
        <ele>1416</ele>
        <time>2009-07-10T15:03:13Z</time>
      </trkpt>
      <trkpt lat="44.3841" lon="3.88178">
        <ele>1416</ele>
        <time>2009-07-10T15:03:19Z</time>
      </trkpt>
      <trkpt lat="44.38418" lon="3.88215">
        <ele>1412</ele>
        <time>2009-07-10T15:03:26Z</time>
      </trkpt>
      <trkpt lat="44.38431" lon="3.88215">
        <ele>1410</ele>
        <time>2009-07-10T15:03:28Z</time>
      </trkpt>
      <trkpt lat="44.38488" lon="3.88242">
        <ele>1407</ele>
        <time>2009-07-10T15:03:37Z</time>
      </trkpt>
      <trkpt lat="44.38492" lon="3.88253">
        <ele>1408</ele>
        <time>2009-07-10T15:03:38Z</time>
      </trkpt>
      <trkpt lat="44.38501" lon="3.88291">
        <ele>1406</ele>
        <time>2009-07-10T15:03:42Z</time>
      </trkpt>
      <trkpt lat="44.38505" lon="3.8833">
        <ele>1404</ele>
        <time>2009-07-10T15:03:46Z</time>
      </trkpt>
      <trkpt lat="44.38504" lon="3.88339">
        <ele>1403</ele>
        <time>2009-07-10T15:03:47Z</time>
      </trkpt>
      <trkpt lat="44.38504" lon="3.88358">
        <ele>1403</ele>
        <time>2009-07-10T15:03:49Z</time>
      </trkpt>
      <trkpt lat="44.38499" lon="3.88388">
        <ele>1404</ele>
        <time>2009-07-10T15:03:56Z</time>
      </trkpt>
      <trkpt lat="44.38499" lon="3.88388">
        <ele>1403</ele>
        <time>2009-07-10T15:03:58Z</time>
      </trkpt>
      <trkpt lat="44.38496" lon="3.88405">
        <ele>1402</ele>
        <time>2009-07-10T15:04:04Z</time>
      </trkpt>
      <trkpt lat="44.38504" lon="3.88419">
        <ele>1403</ele>
        <time>2009-07-10T15:04:14Z</time>
      </trkpt>
      <trkpt lat="44.38508" lon="3.88425">
        <ele>1402</ele>
        <time>2009-07-10T15:04:25Z</time>
      </trkpt>
      <trkpt lat="44.38518" lon="3.88441">
        <ele>1399</ele>
        <time>2009-07-10T15:04:30Z</time>
      </trkpt>
      <trkpt lat="44.38526" lon="3.88449">
        <ele>1397</ele>
        <time>2009-07-10T15:04:33Z</time>
      </trkpt>
      <trkpt lat="44.38549" lon="3.88461">
        <ele>1396</ele>
        <time>2009-07-10T15:04:40Z</time>
      </trkpt>
      <trkpt lat="44.38571" lon="3.88466">
        <ele>1393</ele>
        <time>2009-07-10T15:04:49Z</time>
      </trkpt>
      <trkpt lat="44.38587" lon="3.88467">
        <ele>1392</ele>
        <time>2009-07-10T15:05:04Z</time>
      </trkpt>
      <trkpt lat="44.38604" lon="3.88464">
        <ele>1390</ele>
        <time>2009-07-10T15:05:08Z</time>
      </trkpt>
      <trkpt lat="44.38614" lon="3.88461">
        <ele>1390</ele>
        <time>2009-07-10T15:05:10Z</time>
      </trkpt>
      <trkpt lat="44.38641" lon="3.88456">
        <ele>1388</ele>
        <time>2009-07-10T15:05:15Z</time>
      </trkpt>
      <trkpt lat="44.38666" lon="3.88462">
        <ele>1386</ele>
        <time>2009-07-10T15:05:19Z</time>
      </trkpt>
      <trkpt lat="44.38683" lon="3.88475">
        <ele>1386</ele>
        <time>2009-07-10T15:05:29Z</time>
      </trkpt>
      <trkpt lat="44.38682" lon="3.88474">
        <ele>1386</ele>
        <time>2009-07-10T15:05:53Z</time>
      </trkpt>
      <trkpt lat="44.38701" lon="3.88453">
        <ele>1387</ele>
        <time>2009-07-10T15:06:04Z</time>
      </trkpt>
      <trkpt lat="44.38704" lon="3.88447">
        <ele>1388</ele>
        <time>2009-07-10T15:06:07Z</time>
      </trkpt>
      <trkpt lat="44.38707" lon="3.88437">
        <ele>1388</ele>
        <time>2009-07-10T15:06:11Z</time>
      </trkpt>
      <trkpt lat="44.38723" lon="3.88405">
        <ele>1389</ele>
        <time>2009-07-10T15:06:25Z</time>
      </trkpt>
      <trkpt lat="44.38725" lon="3.88402">
        <ele>1390</ele>
        <time>2009-07-10T15:06:27Z</time>
      </trkpt>
      <trkpt lat="44.38742" lon="3.88379">
        <ele>1392</ele>
        <time>2009-07-10T15:06:40Z</time>
      </trkpt>
      <trkpt lat="44.38752" lon="3.88352">
        <ele>1393</ele>
        <time>2009-07-10T15:06:51Z</time>
      </trkpt>
      <trkpt lat="44.38765" lon="3.88319">
        <ele>1395</ele>
        <time>2009-07-10T15:07:06Z</time>
      </trkpt>
      <trkpt lat="44.38787" lon="3.88306">
        <ele>1396</ele>
        <time>2009-07-10T15:07:20Z</time>
      </trkpt>
      <trkpt lat="44.38798" lon="3.88299">
        <ele>1396</ele>
        <time>2009-07-10T15:07:28Z</time>
      </trkpt>
      <trkpt lat="44.38807" lon="3.88284">
        <ele>1397</ele>
        <time>2009-07-10T15:07:35Z</time>
      </trkpt>
      <trkpt lat="44.38819" lon="3.8827">
        <ele>1398</ele>
        <time>2009-07-10T15:07:43Z</time>
      </trkpt>
      <trkpt lat="44.38834" lon="3.88254">
        <ele>1401</ele>
        <time>2009-07-10T15:07:54Z</time>
      </trkpt>
      <trkpt lat="44.38839" lon="3.88249">
        <ele>1402</ele>
        <time>2009-07-10T15:07:58Z</time>
      </trkpt>
      <trkpt lat="44.38845" lon="3.88244">
        <ele>1403</ele>
        <time>2009-07-10T15:08:03Z</time>
      </trkpt>
      <trkpt lat="44.38863" lon="3.88237">
        <ele>1404</ele>
        <time>2009-07-10T15:08:14Z</time>
      </trkpt>
      <trkpt lat="44.38868" lon="3.88238">
        <ele>1403</ele>
        <time>2009-07-10T15:08:18Z</time>
      </trkpt>
      <trkpt lat="44.3887" lon="3.88241">
        <ele>1403</ele>
        <time>2009-07-10T15:08:21Z</time>
      </trkpt>
      <trkpt lat="44.38872" lon="3.88247">
        <ele>1403</ele>
        <time>2009-07-10T15:08:34Z</time>
      </trkpt>
      <trkpt lat="44.38875" lon="3.88249">
        <ele>1403</ele>
        <time>2009-07-10T15:09:14Z</time>
      </trkpt>
      <trkpt lat="44.38871" lon="3.88256">
        <ele>1402</ele>
        <time>2009-07-10T15:09:17Z</time>
      </trkpt>
      <trkpt lat="44.38869" lon="3.88259">
        <ele>1402</ele>
        <time>2009-07-10T15:09:18Z</time>
      </trkpt>
      <trkpt lat="44.38854" lon="3.8828">
        <ele>1398</ele>
        <time>2009-07-10T15:09:23Z</time>
      </trkpt>
      <trkpt lat="44.38849" lon="3.88292">
        <ele>1399</ele>
        <time>2009-07-10T15:09:26Z</time>
      </trkpt>
      <trkpt lat="44.38859" lon="3.88318">
        <ele>1399</ele>
        <time>2009-07-10T15:09:35Z</time>
      </trkpt>
      <trkpt lat="44.3886" lon="3.88319">
        <ele>1399</ele>
        <time>2009-07-10T15:09:36Z</time>
      </trkpt>
      <trkpt lat="44.38864" lon="3.88321">
        <ele>1399</ele>
        <time>2009-07-10T15:09:38Z</time>
      </trkpt>
      <trkpt lat="44.38881" lon="3.88347">
        <ele>1399</ele>
        <time>2009-07-10T15:09:48Z</time>
      </trkpt>
      <trkpt lat="44.38903" lon="3.88361">
        <ele>1399</ele>
        <time>2009-07-10T15:09:57Z</time>
      </trkpt>
      <trkpt lat="44.38906" lon="3.88363">
        <ele>1400</ele>
        <time>2009-07-10T15:09:59Z</time>
      </trkpt>
      <trkpt lat="44.38911" lon="3.88369">
        <ele>1400</ele>
        <time>2009-07-10T15:10:11Z</time>
      </trkpt>
      <trkpt lat="44.38915" lon="3.88372">
        <ele>1400</ele>
        <time>2009-07-10T15:10:25Z</time>
      </trkpt>
      <trkpt lat="44.38913" lon="3.88384">
        <ele>1401</ele>
        <time>2009-07-10T15:10:34Z</time>
      </trkpt>
      <trkpt lat="44.38914" lon="3.88391">
        <ele>1402</ele>
        <time>2009-07-10T15:10:39Z</time>
      </trkpt>
      <trkpt lat="44.38914" lon="3.88394">
        <ele>1402</ele>
        <time>2009-07-10T15:10:41Z</time>
      </trkpt>
      <trkpt lat="44.38911" lon="3.88409">
        <ele>1403</ele>
        <time>2009-07-10T15:10:56Z</time>
      </trkpt>
      <trkpt lat="44.3891" lon="3.88414">
        <ele>1403</ele>
        <time>2009-07-10T15:10:58Z</time>
      </trkpt>
      <trkpt lat="44.38913" lon="3.88441">
        <ele>1406</ele>
        <time>2009-07-10T15:11:09Z</time>
      </trkpt>
      <trkpt lat="44.38914" lon="3.88443">
        <ele>1406</ele>
        <time>2009-07-10T15:11:10Z</time>
      </trkpt>
      <trkpt lat="44.38917" lon="3.88451">
        <ele>1407</ele>
        <time>2009-07-10T15:11:14Z</time>
      </trkpt>
      <trkpt lat="44.38919" lon="3.8846">
        <ele>1408</ele>
        <time>2009-07-10T15:11:19Z</time>
      </trkpt>
      <trkpt lat="44.38918" lon="3.88477">
        <ele>1410</ele>
        <time>2009-07-10T15:11:27Z</time>
      </trkpt>
      <trkpt lat="44.38918" lon="3.88502">
        <ele>1413</ele>
        <time>2009-07-10T15:11:38Z</time>
      </trkpt>
      <trkpt lat="44.38917" lon="3.88509">
        <ele>1414</ele>
        <time>2009-07-10T15:11:41Z</time>
      </trkpt>
      <trkpt lat="44.38915" lon="3.88519">
        <ele>1414</ele>
        <time>2009-07-10T15:11:45Z</time>
      </trkpt>
      <trkpt lat="44.38915" lon="3.88523">
        <ele>1414</ele>
        <time>2009-07-10T15:11:47Z</time>
      </trkpt>
      <trkpt lat="44.38922" lon="3.8855">
        <ele>1415</ele>
        <time>2009-07-10T15:11:58Z</time>
      </trkpt>
      <trkpt lat="44.38927" lon="3.88559">
        <ele>1416</ele>
        <time>2009-07-10T15:12:02Z</time>
      </trkpt>
      <trkpt lat="44.38934" lon="3.88574">
        <ele>1417</ele>
        <time>2009-07-10T15:12:09Z</time>
      </trkpt>
      <trkpt lat="44.38939" lon="3.88583">
        <ele>1417</ele>
        <time>2009-07-10T15:12:14Z</time>
      </trkpt>
      <trkpt lat="44.38941" lon="3.88588">
        <ele>1419</ele>
        <time>2009-07-10T15:12:16Z</time>
      </trkpt>
      <trkpt lat="44.38962" lon="3.88615">
        <ele>1421</ele>
        <time>2009-07-10T15:12:31Z</time>
      </trkpt>
      <trkpt lat="44.38977" lon="3.88639">
        <ele>1422</ele>
        <time>2009-07-10T15:12:45Z</time>
      </trkpt>
      <trkpt lat="44.38994" lon="3.88658">
        <ele>1425</ele>
        <time>2009-07-10T15:12:58Z</time>
      </trkpt>
      <trkpt lat="44.3901" lon="3.88692">
        <ele>1426</ele>
        <time>2009-07-10T15:13:13Z</time>
      </trkpt>
      <trkpt lat="44.39015" lon="3.8871">
        <ele>1427</ele>
        <time>2009-07-10T15:13:19Z</time>
      </trkpt>
      <trkpt lat="44.39029" lon="3.88741">
        <ele>1430</ele>
        <time>2009-07-10T15:13:32Z</time>
      </trkpt>
      <trkpt lat="44.39038" lon="3.88753">
        <ele>1431</ele>
        <time>2009-07-10T15:13:38Z</time>
      </trkpt>
      <trkpt lat="44.39037" lon="3.88766">
        <ele>1432</ele>
        <time>2009-07-10T15:13:43Z</time>
      </trkpt>
      <trkpt lat="44.39038" lon="3.88796">
        <ele>1432</ele>
        <time>2009-07-10T15:13:56Z</time>
      </trkpt>
      <trkpt lat="44.39038" lon="3.88796">
        <ele>1432</ele>
        <time>2009-07-10T15:13:57Z</time>
      </trkpt>
      <trkpt lat="44.39046" lon="3.88798">
        <ele>1432</ele>
        <time>2009-07-10T15:14:35Z</time>
      </trkpt>
      <trkpt lat="44.39053" lon="3.88806">
        <ele>1431</ele>
        <time>2009-07-10T15:15:03Z</time>
      </trkpt>
      <trkpt lat="44.39054" lon="3.88808">
        <ele>1431</ele>
        <time>2009-07-10T15:15:32Z</time>
      </trkpt>
      <trkpt lat="44.39052" lon="3.88804">
        <ele>1432</ele>
        <time>2009-07-10T15:16:03Z</time>
      </trkpt>
      <trkpt lat="44.39047" lon="3.88799">
        <ele>1432</ele>
        <time>2009-07-10T15:16:26Z</time>
      </trkpt>
      <trkpt lat="44.39043" lon="3.88803">
        <ele>1433</ele>
        <time>2009-07-10T15:16:58Z</time>
      </trkpt>
      <trkpt lat="44.39044" lon="3.88814">
        <ele>1433</ele>
        <time>2009-07-10T15:17:10Z</time>
      </trkpt>
      <trkpt lat="44.39053" lon="3.88844">
        <ele>1433</ele>
        <time>2009-07-10T15:17:20Z</time>
      </trkpt>
      <trkpt lat="44.39062" lon="3.88862">
        <ele>1435</ele>
        <time>2009-07-10T15:17:26Z</time>
      </trkpt>
      <trkpt lat="44.39065" lon="3.88865">
        <ele>1435</ele>
        <time>2009-07-10T15:17:27Z</time>
      </trkpt>
      <trkpt lat="44.39093" lon="3.88898">
        <ele>1434</ele>
        <time>2009-07-10T15:17:39Z</time>
      </trkpt>
      <trkpt lat="44.39125" lon="3.88941">
        <ele>1435</ele>
        <time>2009-07-10T15:17:51Z</time>
      </trkpt>
      <trkpt lat="44.39159" lon="3.88953">
        <ele>1437</ele>
        <time>2009-07-10T15:18:01Z</time>
      </trkpt>
      <trkpt lat="44.39189" lon="3.88959">
        <ele>1440</ele>
        <time>2009-07-10T15:18:10Z</time>
      </trkpt>
      <trkpt lat="44.39203" lon="3.8899">
        <ele>1442</ele>
        <time>2009-07-10T15:18:21Z</time>
      </trkpt>
      <trkpt lat="44.39206" lon="3.89004">
        <ele>1444</ele>
        <time>2009-07-10T15:18:26Z</time>
      </trkpt>
      <trkpt lat="44.39209" lon="3.89015">
        <ele>1444</ele>
        <time>2009-07-10T15:18:31Z</time>
      </trkpt>
      <trkpt lat="44.3922" lon="3.89046">
        <ele>1446</ele>
        <time>2009-07-10T15:18:44Z</time>
      </trkpt>
      <trkpt lat="44.39226" lon="3.8907">
        <ele>1448</ele>
        <time>2009-07-10T15:18:53Z</time>
      </trkpt>
      <trkpt lat="44.39231" lon="3.89077">
        <ele>1448</ele>
        <time>2009-07-10T15:18:57Z</time>
      </trkpt>
      <trkpt lat="44.3924" lon="3.89083">
        <ele>1449</ele>
        <time>2009-07-10T15:19:02Z</time>
      </trkpt>
      <trkpt lat="44.39246" lon="3.89087">
        <ele>1452</ele>
        <time>2009-07-10T15:19:07Z</time>
      </trkpt>
      <trkpt lat="44.39247" lon="3.89088">
        <ele>1453</ele>
        <time>2009-07-10T15:19:08Z</time>
      </trkpt>
      <trkpt lat="44.39256" lon="3.89081">
        <ele>1454</ele>
        <time>2009-07-10T15:19:15Z</time>
      </trkpt>
      <trkpt lat="44.39268" lon="3.89024">
        <ele>1453</ele>
        <time>2009-07-10T15:19:32Z</time>
      </trkpt>
      <trkpt lat="44.39286" lon="3.88951">
        <ele>1455</ele>
        <time>2009-07-10T15:19:52Z</time>
      </trkpt>
      <trkpt lat="44.39295" lon="3.88915">
        <ele>1456</ele>
        <time>2009-07-10T15:20:04Z</time>
      </trkpt>
      <trkpt lat="44.39294" lon="3.88917">
        <ele>1456</ele>
        <time>2009-07-10T15:20:11Z</time>
      </trkpt>
      <trkpt lat="44.393" lon="3.8892">
        <ele>1457</ele>
        <time>2009-07-10T15:20:23Z</time>
      </trkpt>
      <trkpt lat="44.39311" lon="3.88922">
        <ele>1457</ele>
        <time>2009-07-10T15:20:35Z</time>
      </trkpt>
      <trkpt lat="44.39313" lon="3.88922">
        <ele>1457</ele>
        <time>2009-07-10T15:20:36Z</time>
      </trkpt>
      <trkpt lat="44.39321" lon="3.8893">
        <ele>1457</ele>
        <time>2009-07-10T15:20:41Z</time>
      </trkpt>
      <trkpt lat="44.39337" lon="3.8896">
        <ele>1459</ele>
        <time>2009-07-10T15:20:54Z</time>
      </trkpt>
      <trkpt lat="44.3935" lon="3.88976">
        <ele>1459</ele>
        <time>2009-07-10T15:21:05Z</time>
      </trkpt>
      <trkpt lat="44.39357" lon="3.88981">
        <ele>1457</ele>
        <time>2009-07-10T15:21:15Z</time>
      </trkpt>
      <trkpt lat="44.39362" lon="3.8898">
        <ele>1456</ele>
        <time>2009-07-10T15:21:18Z</time>
      </trkpt>
      <trkpt lat="44.39369" lon="3.88978">
        <ele>1455</ele>
        <time>2009-07-10T15:21:27Z</time>
      </trkpt>
      <trkpt lat="44.3937" lon="3.88983">
        <ele>1454</ele>
        <time>2009-07-10T15:21:30Z</time>
      </trkpt>
      <trkpt lat="44.39374" lon="3.88986">
        <ele>1452</ele>
        <time>2009-07-10T15:21:36Z</time>
      </trkpt>
      <trkpt lat="44.3938" lon="3.8899">
        <ele>1451</ele>
        <time>2009-07-10T15:21:39Z</time>
      </trkpt>
      <trkpt lat="44.39391" lon="3.88991">
        <ele>1448</ele>
        <time>2009-07-10T15:21:52Z</time>
      </trkpt>
      <trkpt lat="44.39398" lon="3.88993">
        <ele>1448</ele>
        <time>2009-07-10T15:21:59Z</time>
      </trkpt>
      <trkpt lat="44.39409" lon="3.89004">
        <ele>1444</ele>
        <time>2009-07-10T15:22:07Z</time>
      </trkpt>
      <trkpt lat="44.39412" lon="3.89004">
        <ele>1444</ele>
        <time>2009-07-10T15:22:08Z</time>
      </trkpt>
      <trkpt lat="44.39417" lon="3.89005">
        <ele>1443</ele>
        <time>2009-07-10T15:22:10Z</time>
      </trkpt>
      <trkpt lat="44.39426" lon="3.89004">
        <ele>1441</ele>
        <time>2009-07-10T15:22:15Z</time>
      </trkpt>
      <trkpt lat="44.39433" lon="3.89006">
        <ele>1440</ele>
        <time>2009-07-10T15:22:25Z</time>
      </trkpt>
      <trkpt lat="44.39438" lon="3.89006">
        <ele>1439</ele>
        <time>2009-07-10T15:22:31Z</time>
      </trkpt>
      <trkpt lat="44.39444" lon="3.89001">
        <ele>1437</ele>
        <time>2009-07-10T15:22:34Z</time>
      </trkpt>
      <trkpt lat="44.39448" lon="3.89">
        <ele>1436</ele>
        <time>2009-07-10T15:22:36Z</time>
      </trkpt>
      <trkpt lat="44.39454" lon="3.89003">
        <ele>1434</ele>
        <time>2009-07-10T15:22:48Z</time>
      </trkpt>
      <trkpt lat="44.39461" lon="3.89">
        <ele>1434</ele>
        <time>2009-07-10T15:22:58Z</time>
      </trkpt>
      <trkpt lat="44.39472" lon="3.88985">
        <ele>1432</ele>
        <time>2009-07-10T15:23:07Z</time>
      </trkpt>
      <trkpt lat="44.39479" lon="3.88973">
        <ele>1430</ele>
        <time>2009-07-10T15:23:19Z</time>
      </trkpt>
      <trkpt lat="44.39483" lon="3.88975">
        <ele>1429</ele>
        <time>2009-07-10T15:23:26Z</time>
      </trkpt>
      <trkpt lat="44.39493" lon="3.88973">
        <ele>1427</ele>
        <time>2009-07-10T15:23:37Z</time>
      </trkpt>
      <trkpt lat="44.39495" lon="3.88972">
        <ele>1427</ele>
        <time>2009-07-10T15:23:38Z</time>
      </trkpt>
      <trkpt lat="44.39501" lon="3.88971">
        <ele>1426</ele>
        <time>2009-07-10T15:23:48Z</time>
      </trkpt>
      <trkpt lat="44.395" lon="3.88972">
        <ele>1426</ele>
        <time>2009-07-10T15:24:40Z</time>
      </trkpt>
      <trkpt lat="44.39502" lon="3.8897">
        <ele>1427</ele>
        <time>2009-07-10T15:26:08Z</time>
      </trkpt>
      <trkpt lat="44.39511" lon="3.88964">
        <ele>1425</ele>
        <time>2009-07-10T15:26:19Z</time>
      </trkpt>
      <trkpt lat="44.39512" lon="3.88962">
        <ele>1424</ele>
        <time>2009-07-10T15:26:22Z</time>
      </trkpt>
      <trkpt lat="44.39522" lon="3.8895">
        <ele>1410</ele>
      </trkpt>
      <trkpt lat="44.39519" lon="3.88956">
        <ele>1424</ele>
        <time>2009-07-10T15:26:38Z</time>
      </trkpt>
      <trkpt lat="44.3953" lon="3.88957">
        <ele>1423</ele>
        <time>2009-07-10T15:26:54Z</time>
      </trkpt>
      <trkpt lat="44.39532" lon="3.88959">
        <ele>1420</ele>
        <time>2009-07-10T15:27:01Z</time>
      </trkpt>
      <trkpt lat="44.39535" lon="3.88959">
        <ele>1418</ele>
        <time>2009-07-10T15:27:04Z</time>
      </trkpt>
      <trkpt lat="44.39541" lon="3.88963">
        <ele>1417</ele>
        <time>2009-07-10T15:27:17Z</time>
      </trkpt>
      <trkpt lat="44.39548" lon="3.8897">
        <ele>1416</ele>
        <time>2009-07-10T15:27:27Z</time>
      </trkpt>
      <trkpt lat="44.39557" lon="3.88972">
        <ele>1413</ele>
        <time>2009-07-10T15:27:38Z</time>
      </trkpt>
      <trkpt lat="44.39566" lon="3.88974">
        <ele>1412</ele>
        <time>2009-07-10T15:27:54Z</time>
      </trkpt>
      <trkpt lat="44.39573" lon="3.88966">
        <ele>1409</ele>
        <time>2009-07-10T15:28:00Z</time>
      </trkpt>
      <trkpt lat="44.3958" lon="3.8896">
        <ele>1406</ele>
        <time>2009-07-10T15:28:04Z</time>
      </trkpt>
      <trkpt lat="44.39585" lon="3.88955">
        <ele>1405</ele>
        <time>2009-07-10T15:28:06Z</time>
      </trkpt>
      <trkpt lat="44.39591" lon="3.88954">
        <ele>1405</ele>
        <time>2009-07-10T15:28:09Z</time>
      </trkpt>
      <trkpt lat="44.39592" lon="3.88947">
        <ele>1405</ele>
        <time>2009-07-10T15:28:22Z</time>
      </trkpt>
      <trkpt lat="44.39591" lon="3.88948">
        <ele>1405</ele>
        <time>2009-07-10T15:28:31Z</time>
      </trkpt>
      <trkpt lat="44.39597" lon="3.88947">
        <ele>1403</ele>
        <time>2009-07-10T15:28:39Z</time>
      </trkpt>
      <trkpt lat="44.39596" lon="3.88939">
        <ele>1404</ele>
        <time>2009-07-10T15:28:49Z</time>
      </trkpt>
      <trkpt lat="44.39594" lon="3.88935">
        <ele>1404</ele>
        <time>2009-07-10T15:29:05Z</time>
      </trkpt>
      <trkpt lat="44.39595" lon="3.88933">
        <ele>1405</ele>
        <time>2009-07-10T15:29:20Z</time>
      </trkpt>
      <trkpt lat="44.39596" lon="3.88933">
        <ele>1404</ele>
        <time>2009-07-10T15:29:30Z</time>
      </trkpt>
      <trkpt lat="44.39602" lon="3.88919">
        <ele>1402</ele>
        <time>2009-07-10T15:29:38Z</time>
      </trkpt>
      <trkpt lat="44.39604" lon="3.88918">
        <ele>1401</ele>
        <time>2009-07-10T15:29:40Z</time>
      </trkpt>
      <trkpt lat="44.39608" lon="3.88917">
        <ele>1400</ele>
        <time>2009-07-10T15:29:44Z</time>
      </trkpt>
      <trkpt lat="44.3961" lon="3.88914">
        <ele>1400</ele>
        <time>2009-07-10T15:29:48Z</time>
      </trkpt>
      <trkpt lat="44.39613" lon="3.88909">
        <ele>1399</ele>
        <time>2009-07-10T15:30:02Z</time>
      </trkpt>
      <trkpt lat="44.39617" lon="3.88902">
        <ele>1398</ele>
        <time>2009-07-10T15:30:18Z</time>
      </trkpt>
      <trkpt lat="44.39621" lon="3.88899">
        <ele>1396</ele>
        <time>2009-07-10T15:30:25Z</time>
      </trkpt>
      <trkpt lat="44.39627" lon="3.88892">
        <ele>1395</ele>
        <time>2009-07-10T15:30:38Z</time>
      </trkpt>
      <trkpt lat="44.39633" lon="3.88887">
        <ele>1394</ele>
        <time>2009-07-10T15:30:50Z</time>
      </trkpt>
      <trkpt lat="44.39637" lon="3.88885">
        <ele>1392</ele>
        <time>2009-07-10T15:31:00Z</time>
      </trkpt>
      <trkpt lat="44.39641" lon="3.88876">
        <ele>1391</ele>
        <time>2009-07-10T15:31:13Z</time>
      </trkpt>
      <trkpt lat="44.39641" lon="3.88876">
        <ele>1392</ele>
        <time>2009-07-10T15:31:14Z</time>
      </trkpt>
      <trkpt lat="44.39644" lon="3.88867">
        <ele>1389</ele>
        <time>2009-07-10T15:31:19Z</time>
      </trkpt>
      <trkpt lat="44.3965" lon="3.88844">
        <ele>1385</ele>
        <time>2009-07-10T15:31:25Z</time>
      </trkpt>
      <trkpt lat="44.39653" lon="3.88841">
        <ele>1386</ele>
        <time>2009-07-10T15:31:28Z</time>
      </trkpt>
      <trkpt lat="44.39654" lon="3.88862">
        <ele>1386</ele>
        <time>2009-07-10T15:31:35Z</time>
      </trkpt>
      <trkpt lat="44.3966" lon="3.88854">
        <ele>1385</ele>
        <time>2009-07-10T15:31:41Z</time>
      </trkpt>
      <trkpt lat="44.39667" lon="3.8881">
        <ele>1381</ele>
        <time>2009-07-10T15:31:52Z</time>
      </trkpt>
      <trkpt lat="44.39668" lon="3.88805">
        <ele>1381</ele>
        <time>2009-07-10T15:31:53Z</time>
      </trkpt>
      <trkpt lat="44.39675" lon="3.88769">
        <ele>1377</ele>
        <time>2009-07-10T15:32:01Z</time>
      </trkpt>
      <trkpt lat="44.39682" lon="3.88739">
        <ele>1377</ele>
        <time>2009-07-10T15:32:10Z</time>
      </trkpt>
      <trkpt lat="44.3968" lon="3.88739">
        <ele>1376</ele>
        <time>2009-07-10T15:32:42Z</time>
      </trkpt>
      <trkpt lat="44.39683" lon="3.88737">
        <ele>1376</ele>
        <time>2009-07-10T15:33:02Z</time>
      </trkpt>
      <trkpt lat="44.39686" lon="3.88706">
        <ele>1373</ele>
        <time>2009-07-10T15:33:27Z</time>
      </trkpt>
      <trkpt lat="44.39687" lon="3.887">
        <ele>1374</ele>
        <time>2009-07-10T15:33:28Z</time>
      </trkpt>
      <trkpt lat="44.39689" lon="3.88649">
        <ele>1371</ele>
        <time>2009-07-10T15:33:35Z</time>
      </trkpt>
      <trkpt lat="44.3969" lon="3.88607">
        <ele>1367</ele>
        <time>2009-07-10T15:33:40Z</time>
      </trkpt>
      <trkpt lat="44.39707" lon="3.88561">
        <ele>1365</ele>
        <time>2009-07-10T15:33:46Z</time>
      </trkpt>
      <trkpt lat="44.3973" lon="3.88532">
        <ele>1360</ele>
        <time>2009-07-10T15:33:50Z</time>
      </trkpt>
      <trkpt lat="44.3975" lon="3.88509">
        <ele>1356</ele>
        <time>2009-07-10T15:33:53Z</time>
      </trkpt>
      <trkpt lat="44.39757" lon="3.88501">
        <ele>1356</ele>
        <time>2009-07-10T15:33:54Z</time>
      </trkpt>
      <trkpt lat="44.39823" lon="3.8845">
        <ele>1354</ele>
        <time>2009-07-10T15:34:03Z</time>
      </trkpt>
      <trkpt lat="44.39828" lon="3.88457">
        <ele>1353</ele>
        <time>2009-07-10T15:34:08Z</time>
      </trkpt>
      <trkpt lat="44.39825" lon="3.88464">
        <ele>1352</ele>
        <time>2009-07-10T15:34:10Z</time>
      </trkpt>
      <trkpt lat="44.39812" lon="3.88472">
        <ele>1350</ele>
        <time>2009-07-10T15:34:21Z</time>
      </trkpt>
      <trkpt lat="44.39798" lon="3.88487">
        <ele>1348</ele>
        <time>2009-07-10T15:34:26Z</time>
      </trkpt>
      <trkpt lat="44.3978" lon="3.88511">
        <ele>1346</ele>
        <time>2009-07-10T15:34:31Z</time>
      </trkpt>
      <trkpt lat="44.39758" lon="3.88549">
        <ele>1346</ele>
        <time>2009-07-10T15:34:38Z</time>
      </trkpt>
      <trkpt lat="44.39752" lon="3.88559">
        <ele>1346</ele>
        <time>2009-07-10T15:34:40Z</time>
      </trkpt>
      <trkpt lat="44.3974" lon="3.88612">
        <ele>1344</ele>
        <time>2009-07-10T15:34:50Z</time>
      </trkpt>
      <trkpt lat="44.39746" lon="3.88664">
        <ele>1340</ele>
        <time>2009-07-10T15:34:58Z</time>
      </trkpt>
      <trkpt lat="44.39745" lon="3.88679">
        <ele>1340</ele>
        <time>2009-07-10T15:35:00Z</time>
      </trkpt>
      <trkpt lat="44.39748" lon="3.88707">
        <ele>1339</ele>
        <time>2009-07-10T15:35:04Z</time>
      </trkpt>
      <trkpt lat="44.39766" lon="3.88773">
        <ele>1335</ele>
        <time>2009-07-10T15:35:14Z</time>
      </trkpt>
      <trkpt lat="44.39768" lon="3.88781">
        <ele>1335</ele>
        <time>2009-07-10T15:35:15Z</time>
      </trkpt>
      <trkpt lat="44.39776" lon="3.88802">
        <ele>1334</ele>
        <time>2009-07-10T15:35:18Z</time>
      </trkpt>
      <trkpt lat="44.39781" lon="3.88828">
        <ele>1332</ele>
        <time>2009-07-10T15:35:21Z</time>
      </trkpt>
      <trkpt lat="44.39781" lon="3.88837">
        <ele>1333</ele>
        <time>2009-07-10T15:35:22Z</time>
      </trkpt>
      <trkpt lat="44.39786" lon="3.88882">
        <ele>1330</ele>
        <time>2009-07-10T15:35:27Z</time>
      </trkpt>
      <trkpt lat="44.39791" lon="3.889">
        <ele>1330</ele>
        <time>2009-07-10T15:35:29Z</time>
      </trkpt>
      <trkpt lat="44.39803" lon="3.88935">
        <ele>1328</ele>
        <time>2009-07-10T15:35:33Z</time>
      </trkpt>
      <trkpt lat="44.39808" lon="3.88964">
        <ele>1327</ele>
        <time>2009-07-10T15:35:36Z</time>
      </trkpt>
      <trkpt lat="44.39809" lon="3.88993">
        <ele>1325</ele>
        <time>2009-07-10T15:35:39Z</time>
      </trkpt>
      <trkpt lat="44.39806" lon="3.89012">
        <ele>1324</ele>
        <time>2009-07-10T15:35:41Z</time>
      </trkpt>
      <trkpt lat="44.39791" lon="3.89045">
        <ele>1323</ele>
        <time>2009-07-10T15:35:45Z</time>
      </trkpt>
      <trkpt lat="44.39769" lon="3.89084">
        <ele>1320</ele>
        <time>2009-07-10T15:35:50Z</time>
      </trkpt>
      <trkpt lat="44.3976" lon="3.89102">
        <ele>1319</ele>
        <time>2009-07-10T15:35:52Z</time>
      </trkpt>
      <trkpt lat="44.39705" lon="3.89189">
        <ele>1316</ele>
        <time>2009-07-10T15:36:03Z</time>
      </trkpt>
      <trkpt lat="44.39696" lon="3.89222">
        <ele>1315</ele>
        <time>2009-07-10T15:36:07Z</time>
      </trkpt>
      <trkpt lat="44.39694" lon="3.89251">
        <ele>1310</ele>
        <time>2009-07-10T15:36:10Z</time>
      </trkpt>
      <trkpt lat="44.3969" lon="3.8927">
        <ele>1310</ele>
        <time>2009-07-10T15:36:12Z</time>
      </trkpt>
      <trkpt lat="44.39683" lon="3.89285">
        <ele>1308</ele>
        <time>2009-07-10T15:36:14Z</time>
      </trkpt>
      <trkpt lat="44.39676" lon="3.893">
        <ele>1306</ele>
        <time>2009-07-10T15:36:16Z</time>
      </trkpt>
      <trkpt lat="44.39662" lon="3.89324">
        <ele>1304</ele>
        <time>2009-07-10T15:36:20Z</time>
      </trkpt>
      <trkpt lat="44.39653" lon="3.89346">
        <ele>1300</ele>
        <time>2009-07-10T15:36:23Z</time>
      </trkpt>
      <trkpt lat="44.39645" lon="3.89359">
        <ele>1299</ele>
        <time>2009-07-10T15:36:25Z</time>
      </trkpt>
      <trkpt lat="44.39627" lon="3.89383">
        <ele>1296</ele>
        <time>2009-07-10T15:36:29Z</time>
      </trkpt>
      <trkpt lat="44.39605" lon="3.89407">
        <ele>1293</ele>
        <time>2009-07-10T15:36:33Z</time>
      </trkpt>
      <trkpt lat="44.39597" lon="3.89419">
        <ele>1292</ele>
        <time>2009-07-10T15:36:35Z</time>
      </trkpt>
      <trkpt lat="44.39582" lon="3.89457">
        <ele>1288</ele>
        <time>2009-07-10T15:36:42Z</time>
      </trkpt>
      <trkpt lat="44.39573" lon="3.89475">
        <ele>1285</ele>
        <time>2009-07-10T15:36:45Z</time>
      </trkpt>
      <trkpt lat="44.39525" lon="3.89548">
        <ele>1282</ele>
        <time>2009-07-10T15:36:57Z</time>
      </trkpt>
      <trkpt lat="44.39506" lon="3.89567">
        <ele>1278</ele>
        <time>2009-07-10T15:37:01Z</time>
      </trkpt>
      <trkpt lat="44.39501" lon="3.89603">
        <ele>1276</ele>
        <time>2009-07-10T15:37:09Z</time>
      </trkpt>
      <trkpt lat="44.395" lon="3.89625">
        <ele>1275</ele>
        <time>2009-07-10T15:37:14Z</time>
      </trkpt>
      <trkpt lat="44.39502" lon="3.89641">
        <ele>1273</ele>
        <time>2009-07-10T15:37:18Z</time>
      </trkpt>
      <trkpt lat="44.39518" lon="3.89674">
        <ele>1269</ele>
        <time>2009-07-10T15:37:23Z</time>
      </trkpt>
      <trkpt lat="44.39522" lon="3.8968">
        <ele>1269</ele>
        <time>2009-07-10T15:37:24Z</time>
      </trkpt>
      <trkpt lat="44.39524" lon="3.89689">
        <ele>1269</ele>
        <time>2009-07-10T15:37:31Z</time>
      </trkpt>
      <trkpt lat="44.39525" lon="3.8969">
        <ele>1269</ele>
        <time>2009-07-10T15:37:32Z</time>
      </trkpt>
      <trkpt lat="44.39526" lon="3.89692">
        <ele>1269</ele>
        <time>2009-07-10T15:37:34Z</time>
      </trkpt>
      <trkpt lat="44.3953" lon="3.89691">
        <ele>1269</ele>
        <time>2009-07-10T15:37:50Z</time>
      </trkpt>
      <trkpt lat="44.39541" lon="3.89705">
        <ele>1266</ele>
        <time>2009-07-10T15:39:47Z</time>
      </trkpt>
      <trkpt lat="44.39547" lon="3.89711">
        <ele>1265</ele>
        <time>2009-07-10T15:39:49Z</time>
      </trkpt>
      <trkpt lat="44.39571" lon="3.89721">
        <ele>1262</ele>
        <time>2009-07-10T15:39:57Z</time>
      </trkpt>
      <trkpt lat="44.39579" lon="3.89722">
        <ele>1261</ele>
        <time>2009-07-10T15:39:59Z</time>
      </trkpt>
      <trkpt lat="44.39589" lon="3.89722">
        <ele>1260</ele>
        <time>2009-07-10T15:40:02Z</time>
      </trkpt>
      <trkpt lat="44.39597" lon="3.89723">
        <ele>1258</ele>
        <time>2009-07-10T15:40:07Z</time>
      </trkpt>
      <trkpt lat="44.39615" lon="3.89722">
        <ele>1255</ele>
        <time>2009-07-10T15:40:13Z</time>
      </trkpt>
      <trkpt lat="44.39619" lon="3.89723">
        <ele>1254</ele>
        <time>2009-07-10T15:40:14Z</time>
      </trkpt>
      <trkpt lat="44.39653" lon="3.89735">
        <ele>1253</ele>
        <time>2009-07-10T15:40:25Z</time>
      </trkpt>
      <trkpt lat="44.39664" lon="3.89739">
        <ele>1253</ele>
        <time>2009-07-10T15:40:28Z</time>
      </trkpt>
      <trkpt lat="44.39673" lon="3.8974">
        <ele>1253</ele>
        <time>2009-07-10T15:40:30Z</time>
      </trkpt>
      <trkpt lat="44.397" lon="3.89748">
        <ele>1250</ele>
        <time>2009-07-10T15:40:36Z</time>
      </trkpt>
      <trkpt lat="44.39719" lon="3.89759">
        <ele>1251</ele>
        <time>2009-07-10T15:40:45Z</time>
      </trkpt>
      <trkpt lat="44.3972" lon="3.8976">
        <ele>1250</ele>
        <time>2009-07-10T15:40:47Z</time>
      </trkpt>
      <trkpt lat="44.39724" lon="3.89758">
        <ele>1251</ele>
        <time>2009-07-10T15:40:54Z</time>
      </trkpt>
      <trkpt lat="44.3973" lon="3.8976">
        <ele>1250</ele>
        <time>2009-07-10T15:40:57Z</time>
      </trkpt>
      <trkpt lat="44.39733" lon="3.89761">
        <ele>1248</ele>
        <time>2009-07-10T15:40:58Z</time>
      </trkpt>
      <trkpt lat="44.3976" lon="3.89774">
        <ele>1246</ele>
        <time>2009-07-10T15:41:05Z</time>
      </trkpt>
      <trkpt lat="44.39825" lon="3.89801">
        <ele>1246</ele>
        <time>2009-07-10T15:41:18Z</time>
      </trkpt>
      <trkpt lat="44.39831" lon="3.89803">
        <ele>1246</ele>
        <time>2009-07-10T15:41:19Z</time>
      </trkpt>
      <trkpt lat="44.3987" lon="3.8982">
        <ele>1245</ele>
        <time>2009-07-10T15:41:26Z</time>
      </trkpt>
      <trkpt lat="44.3988" lon="3.89826">
        <ele>1246</ele>
        <time>2009-07-10T15:41:28Z</time>
      </trkpt>
      <trkpt lat="44.39898" lon="3.89846">
        <ele>1245</ele>
        <time>2009-07-10T15:41:32Z</time>
      </trkpt>
      <trkpt lat="44.39909" lon="3.89864">
        <ele>1245</ele>
        <time>2009-07-10T15:41:35Z</time>
      </trkpt>
      <trkpt lat="44.39912" lon="3.89895">
        <ele>1244</ele>
        <time>2009-07-10T15:41:39Z</time>
      </trkpt>
      <trkpt lat="44.39906" lon="3.89919">
        <ele>1244</ele>
        <time>2009-07-10T15:41:42Z</time>
      </trkpt>
      <trkpt lat="44.39889" lon="3.89966">
        <ele>1242</ele>
        <time>2009-07-10T15:41:48Z</time>
      </trkpt>
      <trkpt lat="44.39877" lon="3.90007">
        <ele>1242</ele>
        <time>2009-07-10T15:41:53Z</time>
      </trkpt>
      <trkpt lat="44.39868" lon="3.90045">
        <ele>1242</ele>
        <time>2009-07-10T15:41:58Z</time>
      </trkpt>
      <trkpt lat="44.39863" lon="3.90079">
        <ele>1241</ele>
        <time>2009-07-10T15:42:06Z</time>
      </trkpt>
      <trkpt lat="44.39858" lon="3.901">
        <ele>1241</ele>
        <time>2009-07-10T15:42:11Z</time>
      </trkpt>
      <trkpt lat="44.39863" lon="3.90141">
        <ele>1241</ele>
        <time>2009-07-10T15:42:19Z</time>
      </trkpt>
      <trkpt lat="44.39865" lon="3.90166">
        <ele>1239</ele>
        <time>2009-07-10T15:42:23Z</time>
      </trkpt>
      <trkpt lat="44.39872" lon="3.90221">
        <ele>1239</ele>
        <time>2009-07-10T15:42:33Z</time>
      </trkpt>
      <trkpt lat="44.39874" lon="3.90239">
        <ele>1238</ele>
        <time>2009-07-10T15:42:36Z</time>
      </trkpt>
      <trkpt lat="44.39878" lon="3.90288">
        <ele>1238</ele>
        <time>2009-07-10T15:42:45Z</time>
      </trkpt>
      <trkpt lat="44.39869" lon="3.90354">
        <ele>1238</ele>
        <time>2009-07-10T15:42:58Z</time>
      </trkpt>
      <trkpt lat="44.39857" lon="3.90373">
        <ele>1237</ele>
        <time>2009-07-10T15:43:09Z</time>
      </trkpt>
      <trkpt lat="44.39853" lon="3.90378">
        <ele>1238</ele>
        <time>2009-07-10T15:43:46Z</time>
      </trkpt>
      <trkpt lat="44.39853" lon="3.90383">
        <ele>1235</ele>
        <time>2009-07-10T15:43:57Z</time>
      </trkpt>
      <trkpt lat="44.39857" lon="3.90384">
        <ele>1235</ele>
        <time>2009-07-10T15:44:09Z</time>
      </trkpt>
      <trkpt lat="44.39866" lon="3.90391">
        <ele>1232</ele>
        <time>2009-07-10T15:44:32Z</time>
      </trkpt>
      <trkpt lat="44.39865" lon="3.90397">
        <ele>1230</ele>
        <time>2009-07-10T15:44:48Z</time>
      </trkpt>
      <trkpt lat="44.39865" lon="3.90397">
        <ele>1230</ele>
        <time>2009-07-10T15:44:49Z</time>
      </trkpt>
      <trkpt lat="44.39859" lon="3.90405">
        <ele>1227</ele>
        <time>2009-07-10T15:45:00Z</time>
      </trkpt>
      <trkpt lat="44.39858" lon="3.90406">
        <ele>1228</ele>
        <time>2009-07-10T15:45:05Z</time>
      </trkpt>
      <trkpt lat="44.39856" lon="3.90408">
        <ele>1227</ele>
        <time>2009-07-10T15:45:08Z</time>
      </trkpt>
      <trkpt lat="44.39853" lon="3.90419">
        <ele>1224</ele>
        <time>2009-07-10T15:45:17Z</time>
      </trkpt>
      <trkpt lat="44.39852" lon="3.9042">
        <ele>1224</ele>
        <time>2009-07-10T15:45:18Z</time>
      </trkpt>
      <trkpt lat="44.39851" lon="3.90427">
        <ele>1224</ele>
        <time>2009-07-10T15:45:31Z</time>
      </trkpt>
      <trkpt lat="44.39849" lon="3.90433">
        <ele>1221</ele>
        <time>2009-07-10T15:45:44Z</time>
      </trkpt>
      <trkpt lat="44.39854" lon="3.90432">
        <ele>1219</ele>
        <time>2009-07-10T15:45:52Z</time>
      </trkpt>
      <trkpt lat="44.39859" lon="3.9043">
        <ele>1218</ele>
        <time>2009-07-10T15:45:55Z</time>
      </trkpt>
      <trkpt lat="44.39876" lon="3.90424">
        <ele>1214</ele>
        <time>2009-07-10T15:46:04Z</time>
      </trkpt>
      <trkpt lat="44.39878" lon="3.90423">
        <ele>1214</ele>
        <time>2009-07-10T15:46:05Z</time>
      </trkpt>
      <trkpt lat="44.39889" lon="3.90429">
        <ele>1213</ele>
        <time>2009-07-10T15:46:11Z</time>
      </trkpt>
      <trkpt lat="44.39884" lon="3.90438">
        <ele>1208</ele>
        <time>2009-07-10T15:46:16Z</time>
      </trkpt>
      <trkpt lat="44.39885" lon="3.9044">
        <ele>1208</ele>
        <time>2009-07-10T15:46:17Z</time>
      </trkpt>
      <trkpt lat="44.3989" lon="3.90445">
        <ele>1205</ele>
        <time>2009-07-10T15:46:21Z</time>
      </trkpt>
      <trkpt lat="44.39892" lon="3.90446">
        <ele>1204</ele>
        <time>2009-07-10T15:46:22Z</time>
      </trkpt>
      <trkpt lat="44.39887" lon="3.90457">
        <ele>1203</ele>
        <time>2009-07-10T15:46:27Z</time>
      </trkpt>
      <trkpt lat="44.3988" lon="3.90472">
        <ele>1200</ele>
        <time>2009-07-10T15:46:33Z</time>
      </trkpt>
      <trkpt lat="44.39876" lon="3.9048">
        <ele>1198</ele>
        <time>2009-07-10T15:46:36Z</time>
      </trkpt>
      <trkpt lat="44.39873" lon="3.90493">
        <ele>1196</ele>
        <time>2009-07-10T15:46:47Z</time>
      </trkpt>
      <trkpt lat="44.39874" lon="3.90505">
        <ele>1195</ele>
        <time>2009-07-10T15:46:59Z</time>
      </trkpt>
      <trkpt lat="44.39877" lon="3.90508">
        <ele>1193</ele>
        <time>2009-07-10T15:47:01Z</time>
      </trkpt>
      <trkpt lat="44.39888" lon="3.90508">
        <ele>1192</ele>
        <time>2009-07-10T15:47:11Z</time>
      </trkpt>
      <trkpt lat="44.39892" lon="3.90516">
        <ele>1188</ele>
        <time>2009-07-10T15:47:15Z</time>
      </trkpt>
      <trkpt lat="44.39898" lon="3.90518">
        <ele>1184</ele>
        <time>2009-07-10T15:47:18Z</time>
      </trkpt>
      <trkpt lat="44.399" lon="3.90518">
        <ele>1184</ele>
        <time>2009-07-10T15:47:19Z</time>
      </trkpt>
      <trkpt lat="44.39903" lon="3.90519">
        <ele>1183</ele>
        <time>2009-07-10T15:47:20Z</time>
      </trkpt>
      <trkpt lat="44.39916" lon="3.90519">
        <ele>1181</ele>
        <time>2009-07-10T15:47:24Z</time>
      </trkpt>
      <trkpt lat="44.39928" lon="3.90516">
        <ele>1179</ele>
        <time>2009-07-10T15:47:28Z</time>
      </trkpt>
      <trkpt lat="44.39934" lon="3.90517">
        <ele>1178</ele>
        <time>2009-07-10T15:47:31Z</time>
      </trkpt>
      <trkpt lat="44.3994" lon="3.90522">
        <ele>1176</ele>
        <time>2009-07-10T15:47:35Z</time>
      </trkpt>
      <trkpt lat="44.39942" lon="3.90529">
        <ele>1175</ele>
        <time>2009-07-10T15:47:43Z</time>
      </trkpt>
      <trkpt lat="44.39942" lon="3.90533">
        <ele>1174</ele>
        <time>2009-07-10T15:48:04Z</time>
      </trkpt>
      <trkpt lat="44.39941" lon="3.90537">
        <ele>1174</ele>
        <time>2009-07-10T15:48:13Z</time>
      </trkpt>
      <trkpt lat="44.39934" lon="3.90548">
        <ele>1173</ele>
        <time>2009-07-10T15:48:27Z</time>
      </trkpt>
      <trkpt lat="44.39928" lon="3.90551">
        <ele>1173</ele>
        <time>2009-07-10T15:48:39Z</time>
      </trkpt>
      <trkpt lat="44.39926" lon="3.90553">
        <ele>1173</ele>
        <time>2009-07-10T15:48:48Z</time>
      </trkpt>
      <trkpt lat="44.39926" lon="3.9056">
        <ele>1171</ele>
        <time>2009-07-10T15:48:56Z</time>
      </trkpt>
      <trkpt lat="44.3992" lon="3.90565">
        <ele>1169</ele>
        <time>2009-07-10T15:49:00Z</time>
      </trkpt>
      <trkpt lat="44.39912" lon="3.90572">
        <ele>1166</ele>
        <time>2009-07-10T15:49:04Z</time>
      </trkpt>
      <trkpt lat="44.39907" lon="3.90573">
        <ele>1166</ele>
        <time>2009-07-10T15:49:06Z</time>
      </trkpt>
      <trkpt lat="44.39897" lon="3.90576">
        <ele>1165</ele>
        <time>2009-07-10T15:49:11Z</time>
      </trkpt>
      <trkpt lat="44.39894" lon="3.9058">
        <ele>1161</ele>
        <time>2009-07-10T15:49:13Z</time>
      </trkpt>
      <trkpt lat="44.39894" lon="3.90581">
        <ele>1161</ele>
        <time>2009-07-10T15:49:15Z</time>
      </trkpt>
      <trkpt lat="44.39909" lon="3.90591">
        <ele>1160</ele>
        <time>2009-07-10T15:49:27Z</time>
      </trkpt>
      <trkpt lat="44.39931" lon="3.90593">
        <ele>1158</ele>
        <time>2009-07-10T15:49:52Z</time>
      </trkpt>
      <trkpt lat="44.3996" lon="3.90583">
        <ele>1157</ele>
        <time>2009-07-10T15:50:03Z</time>
      </trkpt>
      <trkpt lat="44.39989" lon="3.90557">
        <ele>1154</ele>
        <time>2009-07-10T15:50:16Z</time>
      </trkpt>
      <trkpt lat="44.39997" lon="3.90546">
        <ele>1154</ele>
        <time>2009-07-10T15:50:28Z</time>
      </trkpt>
      <trkpt lat="44.39999" lon="3.90546">
        <ele>1154</ele>
        <time>2009-07-10T15:51:13Z</time>
      </trkpt>
      <trkpt lat="44.4" lon="3.90547">
        <ele>1155</ele>
        <time>2009-07-10T15:52:06Z</time>
      </trkpt>
      <trkpt lat="44.4" lon="3.90548">
        <ele>1151</ele>
        <time>2009-07-10T15:52:52Z</time>
      </trkpt>
      <trkpt lat="44.4" lon="3.90548">
        <ele>1155</ele>
        <time>2009-07-10T15:52:53Z</time>
      </trkpt>
      <trkpt lat="44.4" lon="3.90548">
        <ele>1154</ele>
        <time>2009-07-10T15:52:57Z</time>
      </trkpt>
      <trkpt lat="44.4" lon="3.90545">
        <ele>1152</ele>
        <time>2009-07-10T15:53:39Z</time>
      </trkpt>
      <trkpt lat="44.40017" lon="3.90508">
        <ele>1150</ele>
        <time>2009-07-10T15:53:52Z</time>
      </trkpt>
      <trkpt lat="44.40025" lon="3.90486">
        <ele>1147</ele>
        <time>2009-07-10T15:53:56Z</time>
      </trkpt>
      <trkpt lat="44.40027" lon="3.9048">
        <ele>1147</ele>
        <time>2009-07-10T15:53:57Z</time>
      </trkpt>
      <trkpt lat="44.40039" lon="3.90443">
        <ele>1145</ele>
        <time>2009-07-10T15:54:02Z</time>
      </trkpt>
      <trkpt lat="44.40048" lon="3.90421">
        <ele>1143</ele>
        <time>2009-07-10T15:54:05Z</time>
      </trkpt>
      <trkpt lat="44.40075" lon="3.90376">
        <ele>1140</ele>
        <time>2009-07-10T15:54:12Z</time>
      </trkpt>
      <trkpt lat="44.40086" lon="3.9036">
        <ele>1139</ele>
        <time>2009-07-10T15:54:14Z</time>
      </trkpt>
      <trkpt lat="44.401" lon="3.9032">
        <ele>1136</ele>
        <time>2009-07-10T15:54:18Z</time>
      </trkpt>
      <trkpt lat="44.40102" lon="3.9031">
        <ele>1136</ele>
        <time>2009-07-10T15:54:19Z</time>
      </trkpt>
      <trkpt lat="44.40102" lon="3.90264">
        <ele>1135</ele>
        <time>2009-07-10T15:54:27Z</time>
      </trkpt>
      <trkpt lat="44.40096" lon="3.90247">
        <ele>1135</ele>
        <time>2009-07-10T15:54:31Z</time>
      </trkpt>
      <trkpt lat="44.40106" lon="3.90248">
        <ele>1133</ele>
        <time>2009-07-10T15:54:38Z</time>
      </trkpt>
      <trkpt lat="44.40115" lon="3.90285">
        <ele>1130</ele>
        <time>2009-07-10T15:54:45Z</time>
      </trkpt>
      <trkpt lat="44.40121" lon="3.90306">
        <ele>1129</ele>
        <time>2009-07-10T15:54:48Z</time>
      </trkpt>
      <trkpt lat="44.40125" lon="3.9033">
        <ele>1128</ele>
        <time>2009-07-10T15:54:51Z</time>
      </trkpt>
      <trkpt lat="44.40124" lon="3.90348">
        <ele>1127</ele>
        <time>2009-07-10T15:54:53Z</time>
      </trkpt>
      <trkpt lat="44.40111" lon="3.90393">
        <ele>1125</ele>
        <time>2009-07-10T15:54:58Z</time>
      </trkpt>
      <trkpt lat="44.40088" lon="3.90449">
        <ele>1121</ele>
        <time>2009-07-10T15:55:04Z</time>
      </trkpt>
      <trkpt lat="44.40082" lon="3.9047">
        <ele>1121</ele>
        <time>2009-07-10T15:55:06Z</time>
      </trkpt>
      <trkpt lat="44.40083" lon="3.90504">
        <ele>1119</ele>
        <time>2009-07-10T15:55:09Z</time>
      </trkpt>
      <trkpt lat="44.40085" lon="3.90516">
        <ele>1118</ele>
        <time>2009-07-10T15:55:10Z</time>
      </trkpt>
      <trkpt lat="44.40091" lon="3.90565">
        <ele>1115</ele>
        <time>2009-07-10T15:55:14Z</time>
      </trkpt>
      <trkpt lat="44.40099" lon="3.90626">
        <ele>1112</ele>
        <time>2009-07-10T15:55:19Z</time>
      </trkpt>
      <trkpt lat="44.40106" lon="3.90674">
        <ele>1109</ele>
        <time>2009-07-10T15:55:23Z</time>
      </trkpt>
      <trkpt lat="44.4011" lon="3.90681">
        <ele>1111</ele>
        <time>2009-07-10T15:55:26Z</time>
      </trkpt>
      <trkpt lat="44.40111" lon="3.90678">
        <ele>1111</ele>
        <time>2009-07-10T15:55:42Z</time>
      </trkpt>
      <trkpt lat="44.4011" lon="3.90679">
        <ele>1111</ele>
        <time>2009-07-10T15:55:54Z</time>
      </trkpt>
      <trkpt lat="44.40124" lon="3.90697">
        <ele>1112</ele>
        <time>2009-07-10T15:56:07Z</time>
      </trkpt>
      <trkpt lat="44.40145" lon="3.90706">
        <ele>1115</ele>
        <time>2009-07-10T15:56:19Z</time>
      </trkpt>
      <trkpt lat="44.40151" lon="3.90709">
        <ele>1116</ele>
        <time>2009-07-10T15:56:31Z</time>
      </trkpt>
      <trkpt lat="44.40159" lon="3.90714">
        <ele>1116</ele>
        <time>2009-07-10T15:56:44Z</time>
      </trkpt>
      <trkpt lat="44.40169" lon="3.9072">
        <ele>1117</ele>
        <time>2009-07-10T15:56:52Z</time>
      </trkpt>
      <trkpt lat="44.4019" lon="3.90733">
        <ele>1118</ele>
        <time>2009-07-10T15:57:08Z</time>
      </trkpt>
      <trkpt lat="44.40202" lon="3.9074">
        <ele>1120</ele>
        <time>2009-07-10T15:57:17Z</time>
      </trkpt>
      <trkpt lat="44.40218" lon="3.90746">
        <ele>1123</ele>
        <time>2009-07-10T15:57:29Z</time>
      </trkpt>
      <trkpt lat="44.40236" lon="3.9076">
        <ele>1124</ele>
        <time>2009-07-10T15:57:42Z</time>
      </trkpt>
      <trkpt lat="44.40256" lon="3.90789">
        <ele>1126</ele>
        <time>2009-07-10T15:58:01Z</time>
      </trkpt>
      <trkpt lat="44.40263" lon="3.90803">
        <ele>1128</ele>
        <time>2009-07-10T15:58:12Z</time>
      </trkpt>
      <trkpt lat="44.40275" lon="3.90837">
        <ele>1125</ele>
        <time>2009-07-10T15:58:22Z</time>
      </trkpt>
      <trkpt lat="44.40278" lon="3.90843">
        <ele>1124</ele>
        <time>2009-07-10T15:58:23Z</time>
      </trkpt>
      <trkpt lat="44.40283" lon="3.90856">
        <ele>1123</ele>
        <time>2009-07-10T15:58:25Z</time>
      </trkpt>
      <trkpt lat="44.40289" lon="3.90878">
        <ele>1121</ele>
        <time>2009-07-10T15:58:28Z</time>
      </trkpt>
      <trkpt lat="44.40292" lon="3.90934">
        <ele>1122</ele>
        <time>2009-07-10T15:58:38Z</time>
      </trkpt>
      <trkpt lat="44.40291" lon="3.90949">
        <ele>1122</ele>
        <time>2009-07-10T15:58:43Z</time>
      </trkpt>
      <trkpt lat="44.40295" lon="3.90958">
        <ele>1122</ele>
        <time>2009-07-10T15:58:47Z</time>
      </trkpt>
      <trkpt lat="44.40307" lon="3.9097">
        <ele>1124</ele>
        <time>2009-07-10T15:59:01Z</time>
      </trkpt>
      <trkpt lat="44.40313" lon="3.90977">
        <ele>1125</ele>
        <time>2009-07-10T15:59:14Z</time>
      </trkpt>
      <trkpt lat="44.40323" lon="3.90999">
        <ele>1127</ele>
        <time>2009-07-10T15:59:26Z</time>
      </trkpt>
      <trkpt lat="44.40325" lon="3.91006">
        <ele>1127</ele>
        <time>2009-07-10T15:59:29Z</time>
      </trkpt>
      <trkpt lat="44.40334" lon="3.9104">
        <ele>1127</ele>
        <time>2009-07-10T15:59:42Z</time>
      </trkpt>
      <trkpt lat="44.40333" lon="3.91043">
        <ele>1126</ele>
        <time>2009-07-10T15:59:43Z</time>
      </trkpt>
      <trkpt lat="44.40343" lon="3.91077">
        <ele>1127</ele>
        <time>2009-07-10T15:59:56Z</time>
      </trkpt>
      <trkpt lat="44.40347" lon="3.91097">
        <ele>1127</ele>
        <time>2009-07-10T16:00:06Z</time>
      </trkpt>
      <trkpt lat="44.40346" lon="3.91099">
        <ele>1127</ele>
        <time>2009-07-10T16:00:12Z</time>
      </trkpt>
      <trkpt lat="44.40348" lon="3.91105">
        <ele>1125</ele>
        <time>2009-07-10T16:00:29Z</time>
      </trkpt>
      <trkpt lat="44.40349" lon="3.91117">
        <ele>1123</ele>
        <time>2009-07-10T16:00:44Z</time>
      </trkpt>
      <trkpt lat="44.40349" lon="3.9112">
        <ele>1123</ele>
        <time>2009-07-10T16:00:57Z</time>
      </trkpt>
      <trkpt lat="44.40355" lon="3.91149">
        <ele>1124</ele>
        <time>2009-07-10T16:01:10Z</time>
      </trkpt>
      <trkpt lat="44.40353" lon="3.91175">
        <ele>1125</ele>
        <time>2009-07-10T16:01:22Z</time>
      </trkpt>
      <trkpt lat="44.40346" lon="3.91183">
        <ele>1125</ele>
        <time>2009-07-10T16:01:27Z</time>
      </trkpt>
      <trkpt lat="44.40345" lon="3.91193">
        <ele>1126</ele>
        <time>2009-07-10T16:01:40Z</time>
      </trkpt>
      <trkpt lat="44.40344" lon="3.91198">
        <ele>1127</ele>
        <time>2009-07-10T16:01:45Z</time>
      </trkpt>
      <trkpt lat="44.40344" lon="3.91212">
        <ele>1124</ele>
        <time>2009-07-10T16:01:55Z</time>
      </trkpt>
      <trkpt lat="44.40346" lon="3.91222">
        <ele>1124</ele>
        <time>2009-07-10T16:01:58Z</time>
      </trkpt>
      <trkpt lat="44.40347" lon="3.91234">
        <ele>1122</ele>
        <time>2009-07-10T16:02:03Z</time>
      </trkpt>
      <trkpt lat="44.40351" lon="3.91244">
        <ele>1124</ele>
        <time>2009-07-10T16:02:08Z</time>
      </trkpt>
      <trkpt lat="44.40353" lon="3.91247">
        <ele>1125</ele>
        <time>2009-07-10T16:02:11Z</time>
      </trkpt>
      <trkpt lat="44.40361" lon="3.91261">
        <ele>1126</ele>
        <time>2009-07-10T16:02:24Z</time>
      </trkpt>
      <trkpt lat="44.40369" lon="3.91271">
        <ele>1124</ele>
        <time>2009-07-10T16:02:36Z</time>
      </trkpt>
      <trkpt lat="44.40372" lon="3.9128">
        <ele>1122</ele>
        <time>2009-07-10T16:02:49Z</time>
      </trkpt>
      <trkpt lat="44.40372" lon="3.91284">
        <ele>1121</ele>
        <time>2009-07-10T16:02:53Z</time>
      </trkpt>
      <trkpt lat="44.40366" lon="3.91294">
        <ele>1120</ele>
        <time>2009-07-10T16:03:07Z</time>
      </trkpt>
      <trkpt lat="44.40371" lon="3.913">
        <ele>1118</ele>
        <time>2009-07-10T16:03:20Z</time>
      </trkpt>
      <trkpt lat="44.40374" lon="3.91303">
        <ele>1117</ele>
        <time>2009-07-10T16:03:25Z</time>
      </trkpt>
      <trkpt lat="44.40377" lon="3.91304">
        <ele>1116</ele>
        <time>2009-07-10T16:03:29Z</time>
      </trkpt>
      <trkpt lat="44.40383" lon="3.91315">
        <ele>1112</ele>
        <time>2009-07-10T16:03:40Z</time>
      </trkpt>
      <trkpt lat="44.40384" lon="3.91316">
        <ele>1112</ele>
        <time>2009-07-10T16:03:41Z</time>
      </trkpt>
      <trkpt lat="44.4039" lon="3.91322">
        <ele>1111</ele>
        <time>2009-07-10T16:03:51Z</time>
      </trkpt>
      <trkpt lat="44.40394" lon="3.91328">
        <ele>1109</ele>
        <time>2009-07-10T16:04:09Z</time>
      </trkpt>
      <trkpt lat="44.40396" lon="3.91327">
        <ele>1107</ele>
        <time>2009-07-10T16:04:28Z</time>
      </trkpt>
      <trkpt lat="44.40396" lon="3.91327">
        <ele>1110</ele>
        <time>2009-07-10T16:04:29Z</time>
      </trkpt>
      <trkpt lat="44.40396" lon="3.91327">
        <ele>1109</ele>
        <time>2009-07-10T16:04:30Z</time>
      </trkpt>
      <trkpt lat="44.40394" lon="3.91332">
        <ele>1108</ele>
        <time>2009-07-10T16:04:49Z</time>
      </trkpt>
      <trkpt lat="44.40398" lon="3.91349">
        <ele>1104</ele>
        <time>2009-07-10T16:04:54Z</time>
      </trkpt>
      <trkpt lat="44.40402" lon="3.91362">
        <ele>1103</ele>
        <time>2009-07-10T16:04:57Z</time>
      </trkpt>
      <trkpt lat="44.40405" lon="3.91371">
        <ele>1103</ele>
        <time>2009-07-10T16:05:05Z</time>
      </trkpt>
      <trkpt lat="44.40406" lon="3.91377">
        <ele>1103</ele>
        <time>2009-07-10T16:05:12Z</time>
      </trkpt>
      <trkpt lat="44.40404" lon="3.91391">
        <ele>1104</ele>
        <time>2009-07-10T16:05:24Z</time>
      </trkpt>
      <trkpt lat="44.40406" lon="3.91409">
        <ele>1103</ele>
        <time>2009-07-10T16:05:36Z</time>
      </trkpt>
      <trkpt lat="44.4041" lon="3.91438">
        <ele>1103</ele>
        <time>2009-07-10T16:05:48Z</time>
      </trkpt>
      <trkpt lat="44.40413" lon="3.91442">
        <ele>1103</ele>
        <time>2009-07-10T16:05:56Z</time>
      </trkpt>
      <trkpt lat="44.4042" lon="3.9144">
        <ele>1104</ele>
        <time>2009-07-10T16:06:10Z</time>
      </trkpt>
      <trkpt lat="44.4042" lon="3.91445">
        <ele>1107</ele>
        <time>2009-07-10T16:06:25Z</time>
      </trkpt>
      <trkpt lat="44.40417" lon="3.91449">
        <ele>1109</ele>
        <time>2009-07-10T16:06:40Z</time>
      </trkpt>
      <trkpt lat="44.40417" lon="3.91448">
        <ele>1112</ele>
        <time>2009-07-10T16:07:02Z</time>
      </trkpt>
      <trkpt lat="44.40417" lon="3.91448">
        <ele>1108</ele>
        <time>2009-07-10T16:07:05Z</time>
      </trkpt>
      <trkpt lat="44.40417" lon="3.91453">
        <ele>1110</ele>
        <time>2009-07-10T16:07:21Z</time>
      </trkpt>
      <trkpt lat="44.40417" lon="3.91458">
        <ele>1112</ele>
        <time>2009-07-10T16:07:35Z</time>
      </trkpt>
      <trkpt lat="44.40419" lon="3.91469">
        <ele>1115</ele>
        <time>2009-07-10T16:07:49Z</time>
      </trkpt>
      <trkpt lat="44.40418" lon="3.9148">
        <ele>1116</ele>
        <time>2009-07-10T16:08:02Z</time>
      </trkpt>
      <trkpt lat="44.40418" lon="3.91491">
        <ele>1119</ele>
        <time>2009-07-10T16:08:19Z</time>
      </trkpt>
      <trkpt lat="44.40418" lon="3.91496">
        <ele>1120</ele>
        <time>2009-07-10T16:08:25Z</time>
      </trkpt>
      <trkpt lat="44.4042" lon="3.91502">
        <ele>1120</ele>
        <time>2009-07-10T16:08:38Z</time>
      </trkpt>
      <trkpt lat="44.40421" lon="3.91512">
        <ele>1121</ele>
        <time>2009-07-10T16:08:51Z</time>
      </trkpt>
      <trkpt lat="44.40421" lon="3.91515">
        <ele>1122</ele>
        <time>2009-07-10T16:08:54Z</time>
      </trkpt>
      <trkpt lat="44.40424" lon="3.91537">
        <ele>1124</ele>
        <time>2009-07-10T16:09:11Z</time>
      </trkpt>
      <trkpt lat="44.40427" lon="3.91545">
        <ele>1124</ele>
        <time>2009-07-10T16:09:25Z</time>
      </trkpt>
      <trkpt lat="44.40439" lon="3.91565">
        <ele>1125</ele>
        <time>2009-07-10T16:09:37Z</time>
      </trkpt>
      <trkpt lat="44.40448" lon="3.9159">
        <ele>1124</ele>
        <time>2009-07-10T16:09:51Z</time>
      </trkpt>
      <trkpt lat="44.40461" lon="3.91621">
        <ele>1126</ele>
        <time>2009-07-10T16:10:05Z</time>
      </trkpt>
      <trkpt lat="44.4047" lon="3.91648">
        <ele>1124</ele>
        <time>2009-07-10T16:10:20Z</time>
      </trkpt>
      <trkpt lat="44.40475" lon="3.91658">
        <ele>1125</ele>
        <time>2009-07-10T16:10:34Z</time>
      </trkpt>
      <trkpt lat="44.4048" lon="3.91664">
        <ele>1125</ele>
        <time>2009-07-10T16:10:46Z</time>
      </trkpt>
      <trkpt lat="44.40484" lon="3.91668">
        <ele>1125</ele>
        <time>2009-07-10T16:11:00Z</time>
      </trkpt>
      <trkpt lat="44.40494" lon="3.9168">
        <ele>1123</ele>
        <time>2009-07-10T16:11:12Z</time>
      </trkpt>
      <trkpt lat="44.40496" lon="3.91683">
        <ele>1124</ele>
        <time>2009-07-10T16:11:24Z</time>
      </trkpt>
      <trkpt lat="44.40501" lon="3.91691">
        <ele>1123</ele>
        <time>2009-07-10T16:11:43Z</time>
      </trkpt>
      <trkpt lat="44.40508" lon="3.917">
        <ele>1123</ele>
        <time>2009-07-10T16:11:57Z</time>
      </trkpt>
      <trkpt lat="44.40512" lon="3.91705">
        <ele>1123</ele>
        <time>2009-07-10T16:12:09Z</time>
      </trkpt>
      <trkpt lat="44.40516" lon="3.91717">
        <ele>1123</ele>
        <time>2009-07-10T16:12:21Z</time>
      </trkpt>
      <trkpt lat="44.40518" lon="3.91727">
        <ele>1123</ele>
        <time>2009-07-10T16:12:34Z</time>
      </trkpt>
      <trkpt lat="44.40523" lon="3.91742">
        <ele>1123</ele>
        <time>2009-07-10T16:12:50Z</time>
      </trkpt>
      <trkpt lat="44.40524" lon="3.91746">
        <ele>1123</ele>
        <time>2009-07-10T16:13:01Z</time>
      </trkpt>
      <trkpt lat="44.40526" lon="3.91747">
        <ele>1123</ele>
        <time>2009-07-10T16:13:03Z</time>
      </trkpt>
      <trkpt lat="44.40539" lon="3.91763">
        <ele>1122</ele>
        <time>2009-07-10T16:13:16Z</time>
      </trkpt>
      <trkpt lat="44.40546" lon="3.91766">
        <ele>1121</ele>
        <time>2009-07-10T16:13:27Z</time>
      </trkpt>
      <trkpt lat="44.40548" lon="3.91766">
        <ele>1123</ele>
        <time>2009-07-10T16:13:45Z</time>
      </trkpt>
      <trkpt lat="44.40548" lon="3.91766">
        <ele>1119</ele>
        <time>2009-07-10T16:13:46Z</time>
      </trkpt>
      <trkpt lat="44.40548" lon="3.91766">
        <ele>1123</ele>
        <time>2009-07-10T16:13:48Z</time>
      </trkpt>
      <trkpt lat="44.40548" lon="3.91766">
        <ele>1118</ele>
        <time>2009-07-10T16:13:52Z</time>
      </trkpt>
      <trkpt lat="44.40548" lon="3.91766">
        <ele>1123</ele>
        <time>2009-07-10T16:13:53Z</time>
      </trkpt>
      <trkpt lat="44.40548" lon="3.91766">
        <ele>1119</ele>
        <time>2009-07-10T16:13:55Z</time>
      </trkpt>
      <trkpt lat="44.40548" lon="3.91766">
        <ele>1119</ele>
        <time>2009-07-10T16:13:56Z</time>
      </trkpt>
      <trkpt lat="44.40548" lon="3.91766">
        <ele>1121</ele>
        <time>2009-07-10T16:13:58Z</time>
      </trkpt>
      <trkpt lat="44.40549" lon="3.91766">
        <ele>1120</ele>
        <time>2009-07-10T16:14:15Z</time>
      </trkpt>
      <trkpt lat="44.40549" lon="3.91765">
        <ele>1120</ele>
        <time>2009-07-10T16:14:46Z</time>
      </trkpt>
      <trkpt lat="44.40549" lon="3.91763">
        <ele>1119</ele>
        <time>2009-07-10T16:16:52Z</time>
      </trkpt>
      <trkpt lat="44.40549" lon="3.91764">
        <ele>1120</ele>
        <time>2009-07-10T16:18:03Z</time>
      </trkpt>
      <trkpt lat="44.40567" lon="3.91766">
        <ele>1117</ele>
        <time>2009-07-10T16:18:16Z</time>
      </trkpt>
      <trkpt lat="44.40596" lon="3.91775">
        <ele>1114</ele>
        <time>2009-07-10T16:18:27Z</time>
      </trkpt>
      <trkpt lat="44.40615" lon="3.91784">
        <ele>1114</ele>
        <time>2009-07-10T16:18:38Z</time>
      </trkpt>
      <trkpt lat="44.40622" lon="3.91783">
        <ele>1114</ele>
        <time>2009-07-10T16:18:49Z</time>
      </trkpt>
      <trkpt lat="44.4064" lon="3.91795">
        <ele>1114</ele>
        <time>2009-07-10T16:19:04Z</time>
      </trkpt>
      <trkpt lat="44.40643" lon="3.91798">
        <ele>1116</ele>
        <time>2009-07-10T16:19:16Z</time>
      </trkpt>
      <trkpt lat="44.40647" lon="3.91798">
        <ele>1115</ele>
        <time>2009-07-10T16:19:31Z</time>
      </trkpt>
      <trkpt lat="44.40647" lon="3.91797">
        <ele>1116</ele>
        <time>2009-07-10T16:19:35Z</time>
      </trkpt>
      <trkpt lat="44.40641" lon="3.91798">
        <ele>1116</ele>
        <time>2009-07-10T16:19:46Z</time>
      </trkpt>
      <trkpt lat="44.4064" lon="3.91797">
        <ele>1117</ele>
        <time>2009-07-10T16:19:49Z</time>
      </trkpt>
      <trkpt lat="44.40635" lon="3.91794">
        <ele>1114</ele>
        <time>2009-07-10T16:19:52Z</time>
      </trkpt>
      <trkpt lat="44.40633" lon="3.91793">
        <ele>1114</ele>
        <time>2009-07-10T16:19:53Z</time>
      </trkpt>
      <trkpt lat="44.40619" lon="3.91783">
        <ele>1113</ele>
        <time>2009-07-10T16:20:04Z</time>
      </trkpt>
      <trkpt lat="44.40622" lon="3.91779">
        <ele>1112</ele>
        <time>2009-07-10T16:20:16Z</time>
      </trkpt>
      <trkpt lat="44.40622" lon="3.91779">
        <ele>1113</ele>
        <time>2009-07-10T16:20:21Z</time>
      </trkpt>
      <trkpt lat="44.40631" lon="3.91777">
        <ele>1113</ele>
        <time>2009-07-10T16:20:27Z</time>
      </trkpt>
      <trkpt lat="44.40665" lon="3.91789">
        <ele>1111</ele>
        <time>2009-07-10T16:20:42Z</time>
      </trkpt>
      <trkpt lat="44.40672" lon="3.91794">
        <ele>1108</ele>
        <time>2009-07-10T16:20:45Z</time>
      </trkpt>
      <trkpt lat="44.40682" lon="3.91793">
        <ele>1104</ele>
        <time>2009-07-10T16:20:50Z</time>
      </trkpt>
      <trkpt lat="44.40683" lon="3.91792">
        <ele>1104</ele>
        <time>2009-07-10T16:20:51Z</time>
      </trkpt>
      <trkpt lat="44.4069" lon="3.91785">
        <ele>1103</ele>
        <time>2009-07-10T16:21:01Z</time>
      </trkpt>
      <trkpt lat="44.40693" lon="3.91788">
        <ele>1102</ele>
        <time>2009-07-10T16:21:13Z</time>
      </trkpt>
      <trkpt lat="44.40698" lon="3.91787">
        <ele>1101</ele>
        <time>2009-07-10T16:21:21Z</time>
      </trkpt>
      <trkpt lat="44.40708" lon="3.91795">
        <ele>1097</ele>
        <time>2009-07-10T16:21:35Z</time>
      </trkpt>
      <trkpt lat="44.4071" lon="3.91796">
        <ele>1096</ele>
        <time>2009-07-10T16:21:37Z</time>
      </trkpt>
      <trkpt lat="44.40718" lon="3.91801">
        <ele>1093</ele>
        <time>2009-07-10T16:21:47Z</time>
      </trkpt>
      <trkpt lat="44.40718" lon="3.91801">
        <ele>1093</ele>
        <time>2009-07-10T16:21:48Z</time>
      </trkpt>
      <trkpt lat="44.4072" lon="3.91803">
        <ele>1092</ele>
        <time>2009-07-10T16:21:50Z</time>
      </trkpt>
      <trkpt lat="44.40722" lon="3.91806">
        <ele>1091</ele>
        <time>2009-07-10T16:21:53Z</time>
      </trkpt>
      <trkpt lat="44.40723" lon="3.91808">
        <ele>1090</ele>
        <time>2009-07-10T16:21:58Z</time>
      </trkpt>
      <trkpt lat="44.40727" lon="3.91812">
        <ele>1087</ele>
        <time>2009-07-10T16:22:03Z</time>
      </trkpt>
      <trkpt lat="44.40734" lon="3.91818">
        <ele>1084</ele>
        <time>2009-07-10T16:22:16Z</time>
      </trkpt>
      <trkpt lat="44.40738" lon="3.9182">
        <ele>1083</ele>
        <time>2009-07-10T16:22:30Z</time>
      </trkpt>
      <trkpt lat="44.40739" lon="3.9182">
        <ele>1083</ele>
        <time>2009-07-10T16:22:31Z</time>
      </trkpt>
      <trkpt lat="44.40754" lon="3.91821">
        <ele>1079</ele>
        <time>2009-07-10T16:22:37Z</time>
      </trkpt>
      <trkpt lat="44.40766" lon="3.91827">
        <ele>1077</ele>
        <time>2009-07-10T16:22:43Z</time>
      </trkpt>
      <trkpt lat="44.40768" lon="3.91829">
        <ele>1077</ele>
        <time>2009-07-10T16:22:55Z</time>
      </trkpt>
      <trkpt lat="44.40775" lon="3.9184">
        <ele>1075</ele>
        <time>2009-07-10T16:23:03Z</time>
      </trkpt>
      <trkpt lat="44.40784" lon="3.91852">
        <ele>1074</ele>
        <time>2009-07-10T16:23:13Z</time>
      </trkpt>
      <trkpt lat="44.4079" lon="3.91859">
        <ele>1074</ele>
        <time>2009-07-10T16:23:18Z</time>
      </trkpt>
      <trkpt lat="44.40804" lon="3.91873">
        <ele>1070</ele>
        <time>2009-07-10T16:23:25Z</time>
      </trkpt>
      <trkpt lat="44.40818" lon="3.91884">
        <ele>1067</ele>
        <time>2009-07-10T16:23:32Z</time>
      </trkpt>
      <trkpt lat="44.40822" lon="3.91885">
        <ele>1066</ele>
        <time>2009-07-10T16:23:42Z</time>
      </trkpt>
      <trkpt lat="44.4083" lon="3.91891">
        <ele>1065</ele>
        <time>2009-07-10T16:23:55Z</time>
      </trkpt>
      <trkpt lat="44.40846" lon="3.91903">
        <ele>1063</ele>
        <time>2009-07-10T16:24:05Z</time>
      </trkpt>
      <trkpt lat="44.40851" lon="3.91905">
        <ele>1062</ele>
        <time>2009-07-10T16:24:08Z</time>
      </trkpt>
      <trkpt lat="44.40853" lon="3.91907">
        <ele>1061</ele>
        <time>2009-07-10T16:24:20Z</time>
      </trkpt>
      <trkpt lat="44.40863" lon="3.91918">
        <ele>1058</ele>
        <time>2009-07-10T16:24:32Z</time>
      </trkpt>
      <trkpt lat="44.40869" lon="3.91923">
        <ele>1057</ele>
        <time>2009-07-10T16:24:42Z</time>
      </trkpt>
      <trkpt lat="44.40873" lon="3.91925">
        <ele>1056</ele>
        <time>2009-07-10T16:25:00Z</time>
      </trkpt>
      <trkpt lat="44.40884" lon="3.91934">
        <ele>1054</ele>
        <time>2009-07-10T16:25:15Z</time>
      </trkpt>
      <trkpt lat="44.40911" lon="3.91947">
        <ele>1053</ele>
        <time>2009-07-10T16:25:28Z</time>
      </trkpt>
      <trkpt lat="44.40943" lon="3.91951">
        <ele>1053</ele>
        <time>2009-07-10T16:25:43Z</time>
      </trkpt>
      <trkpt lat="44.40962" lon="3.91949">
        <ele>1055</ele>
        <time>2009-07-10T16:25:55Z</time>
      </trkpt>
      <trkpt lat="44.40984" lon="3.91943">
        <ele>1059</ele>
        <time>2009-07-10T16:26:10Z</time>
      </trkpt>
      <trkpt lat="44.41001" lon="3.91936">
        <ele>1060</ele>
        <time>2009-07-10T16:26:23Z</time>
      </trkpt>
      <trkpt lat="44.41002" lon="3.91934">
        <ele>1061</ele>
        <time>2009-07-10T16:26:41Z</time>
      </trkpt>
      <trkpt lat="44.41002" lon="3.91932">
        <ele>1062</ele>
        <time>2009-07-10T16:27:39Z</time>
      </trkpt>
      <trkpt lat="44.41002" lon="3.91934">
        <ele>1061</ele>
        <time>2009-07-10T16:28:00Z</time>
      </trkpt>
      <trkpt lat="44.41002" lon="3.91934">
        <ele>1058</ele>
        <time>2009-07-10T16:28:05Z</time>
      </trkpt>
      <trkpt lat="44.41002" lon="3.91934">
        <ele>1061</ele>
        <time>2009-07-10T16:28:06Z</time>
      </trkpt>
      <trkpt lat="44.41002" lon="3.91934">
        <ele>1057</ele>
        <time>2009-07-10T16:28:09Z</time>
      </trkpt>
      <trkpt lat="44.41002" lon="3.91934">
        <ele>1061</ele>
        <time>2009-07-10T16:28:10Z</time>
      </trkpt>
      <trkpt lat="44.41002" lon="3.91934">
        <ele>1064</ele>
        <time>2009-07-10T16:28:15Z</time>
      </trkpt>
      <trkpt lat="44.41002" lon="3.91934">
        <ele>1060</ele>
        <time>2009-07-10T16:28:16Z</time>
      </trkpt>
      <trkpt lat="44.41002" lon="3.91934">
        <ele>1065</ele>
        <time>2009-07-10T16:28:18Z</time>
      </trkpt>
      <trkpt lat="44.41002" lon="3.91934">
        <ele>1058</ele>
        <time>2009-07-10T16:28:19Z</time>
      </trkpt>
      <trkpt lat="44.41002" lon="3.91934">
        <ele>1062</ele>
        <time>2009-07-10T16:28:20Z</time>
      </trkpt>
      <trkpt lat="44.41002" lon="3.91934">
        <ele>1063</ele>
        <time>2009-07-10T16:28:25Z</time>
      </trkpt>
      <trkpt lat="44.41002" lon="3.91934">
        <ele>1060</ele>
        <time>2009-07-10T16:28:27Z</time>
      </trkpt>
      <trkpt lat="44.41002" lon="3.91934">
        <ele>1063</ele>
        <time>2009-07-10T16:28:28Z</time>
      </trkpt>
      <trkpt lat="44.41002" lon="3.91934">
        <ele>1060</ele>
        <time>2009-07-10T16:28:29Z</time>
      </trkpt>
      <trkpt lat="44.41002" lon="3.91934">
        <ele>1064</ele>
        <time>2009-07-10T16:28:30Z</time>
      </trkpt>
      <trkpt lat="44.41002" lon="3.91934">
        <ele>1061</ele>
        <time>2009-07-10T16:28:33Z</time>
      </trkpt>
      <trkpt lat="44.41002" lon="3.91934">
        <ele>1061</ele>
        <time>2009-07-10T16:29:18Z</time>
      </trkpt>
      <trkpt lat="44.41002" lon="3.91934">
        <ele>1060</ele>
        <time>2009-07-10T16:30:30Z</time>
      </trkpt>
      <trkpt lat="44.41002" lon="3.91934">
        <ele>1060</ele>
        <time>2009-07-10T16:31:59Z</time>
      </trkpt>
      <trkpt lat="44.41003" lon="3.91933">
        <ele>1060</ele>
        <time>2009-07-10T16:33:02Z</time>
      </trkpt>
      <trkpt lat="44.41003" lon="3.91933">
        <ele>1060</ele>
        <time>2009-07-10T16:33:33Z</time>
      </trkpt>
      <trkpt lat="44.41004" lon="3.91933">
        <ele>1061</ele>
        <time>2009-07-10T16:34:10Z</time>
      </trkpt>
      <trkpt lat="44.41004" lon="3.91933">
        <ele>1061</ele>
        <time>2009-07-10T16:34:44Z</time>
      </trkpt>
      <trkpt lat="44.41006" lon="3.91933">
        <ele>1061</ele>
        <time>2009-07-10T16:35:05Z</time>
      </trkpt>
      <trkpt lat="44.41035" lon="3.91923">
        <ele>1060</ele>
        <time>2009-07-10T16:35:18Z</time>
      </trkpt>
      <trkpt lat="44.41061" lon="3.91911">
        <ele>1055</ele>
        <time>2009-07-10T16:35:24Z</time>
      </trkpt>
      <trkpt lat="44.41117" lon="3.91879">
        <ele>1055</ele>
        <time>2009-07-10T16:35:38Z</time>
      </trkpt>
      <trkpt lat="44.41167" lon="3.91854">
        <ele>1058</ele>
        <time>2009-07-10T16:35:55Z</time>
      </trkpt>
      <trkpt lat="44.41203" lon="3.9183">
        <ele>1060</ele>
        <time>2009-07-10T16:36:09Z</time>
      </trkpt>
      <trkpt lat="44.41243" lon="3.9181">
        <ele>1062</ele>
        <time>2009-07-10T16:36:24Z</time>
      </trkpt>
      <trkpt lat="44.41259" lon="3.91808">
        <ele>1060</ele>
        <time>2009-07-10T16:36:30Z</time>
      </trkpt>
      <trkpt lat="44.41267" lon="3.9181">
        <ele>1058</ele>
        <time>2009-07-10T16:36:32Z</time>
      </trkpt>
      <trkpt lat="44.41277" lon="3.91811">
        <ele>1057</ele>
        <time>2009-07-10T16:36:34Z</time>
      </trkpt>
      <trkpt lat="44.41286" lon="3.9181">
        <ele>1055</ele>
        <time>2009-07-10T16:36:36Z</time>
      </trkpt>
      <trkpt lat="44.41296" lon="3.9181">
        <ele>1054</ele>
        <time>2009-07-10T16:36:38Z</time>
      </trkpt>
      <trkpt lat="44.41311" lon="3.91809">
        <ele>1052</ele>
        <time>2009-07-10T16:36:41Z</time>
      </trkpt>
      <trkpt lat="44.41328" lon="3.91807">
        <ele>1046</ele>
        <time>2009-07-10T16:36:44Z</time>
      </trkpt>
      <trkpt lat="44.41334" lon="3.91806">
        <ele>1045</ele>
        <time>2009-07-10T16:36:45Z</time>
      </trkpt>
      <trkpt lat="44.41349" lon="3.91804">
        <ele>1042</ele>
        <time>2009-07-10T16:36:48Z</time>
      </trkpt>
      <trkpt lat="44.41354" lon="3.91803">
        <ele>1043</ele>
        <time>2009-07-10T16:36:49Z</time>
      </trkpt>
      <trkpt lat="44.41373" lon="3.91799">
        <ele>1038</ele>
        <time>2009-07-10T16:36:53Z</time>
      </trkpt>
      <trkpt lat="44.41382" lon="3.91797">
        <ele>1034</ele>
        <time>2009-07-10T16:36:55Z</time>
      </trkpt>
      <trkpt lat="44.41397" lon="3.91795">
        <ele>1030</ele>
        <time>2009-07-10T16:36:58Z</time>
      </trkpt>
      <trkpt lat="44.41407" lon="3.91794">
        <ele>1027</ele>
        <time>2009-07-10T16:37:00Z</time>
      </trkpt>
      <trkpt lat="44.41422" lon="3.91791">
        <ele>1022</ele>
        <time>2009-07-10T16:37:03Z</time>
      </trkpt>
      <trkpt lat="44.41439" lon="3.91791">
        <ele>1019</ele>
        <time>2009-07-10T16:37:06Z</time>
      </trkpt>
      <trkpt lat="44.41454" lon="3.91792">
        <ele>1015</ele>
        <time>2009-07-10T16:37:08Z</time>
      </trkpt>
      <trkpt lat="44.41476" lon="3.91794">
        <ele>1012</ele>
        <time>2009-07-10T16:37:11Z</time>
      </trkpt>
      <trkpt lat="44.415" lon="3.91799">
        <ele>1008</ele>
        <time>2009-07-10T16:37:14Z</time>
      </trkpt>
      <trkpt lat="44.41517" lon="3.91804">
        <ele>1005</ele>
        <time>2009-07-10T16:37:16Z</time>
      </trkpt>
      <trkpt lat="44.41588" lon="3.91818">
        <ele>1004</ele>
        <time>2009-07-10T16:37:25Z</time>
      </trkpt>
      <trkpt lat="44.41643" lon="3.91831">
        <ele>1007</ele>
        <time>2009-07-10T16:37:36Z</time>
      </trkpt>
      <trkpt lat="44.4172" lon="3.91843">
        <ele>1006</ele>
        <time>2009-07-10T16:37:54Z</time>
      </trkpt>
      <trkpt lat="44.41736" lon="3.91849">
        <ele>1005</ele>
        <time>2009-07-10T16:37:57Z</time>
      </trkpt>
      <trkpt lat="44.41768" lon="3.91865">
        <ele>1006</ele>
        <time>2009-07-10T16:38:04Z</time>
      </trkpt>
      <trkpt lat="44.41792" lon="3.91877">
        <ele>1006</ele>
        <time>2009-07-10T16:38:10Z</time>
      </trkpt>
      <trkpt lat="44.41842" lon="3.9189">
        <ele>1008</ele>
        <time>2009-07-10T16:38:22Z</time>
      </trkpt>
      <trkpt lat="44.4187" lon="3.91892">
        <ele>1012</ele>
        <time>2009-07-10T16:38:30Z</time>
      </trkpt>
      <trkpt lat="44.41898" lon="3.91892">
        <ele>1012</ele>
        <time>2009-07-10T16:38:38Z</time>
      </trkpt>
      <trkpt lat="44.41934" lon="3.91888">
        <ele>1014</ele>
        <time>2009-07-10T16:38:50Z</time>
      </trkpt>
      <trkpt lat="44.41956" lon="3.91889">
        <ele>1016</ele>
        <time>2009-07-10T16:39:03Z</time>
      </trkpt>
      <trkpt lat="44.41957" lon="3.91889">
        <ele>1015</ele>
        <time>2009-07-10T16:39:23Z</time>
      </trkpt>
      <trkpt lat="44.4197" lon="3.91897">
        <ele>1012</ele>
        <time>2009-07-10T16:40:43Z</time>
      </trkpt>
      <trkpt lat="44.41983" lon="3.91909">
        <ele>1010</ele>
        <time>2009-07-10T16:40:46Z</time>
      </trkpt>
      <trkpt lat="44.41999" lon="3.91924">
        <ele>1007</ele>
        <time>2009-07-10T16:40:49Z</time>
      </trkpt>
      <trkpt lat="44.42028" lon="3.91952">
        <ele>1004</ele>
        <time>2009-07-10T16:40:55Z</time>
      </trkpt>
      <trkpt lat="44.42035" lon="3.91959">
        <ele>1003</ele>
        <time>2009-07-10T16:40:57Z</time>
      </trkpt>
      <trkpt lat="44.42044" lon="3.91968">
        <ele>999</ele>
        <time>2009-07-10T16:41:00Z</time>
      </trkpt>
      <trkpt lat="44.42058" lon="3.91985">
        <ele>996</ele>
        <time>2009-07-10T16:41:04Z</time>
      </trkpt>
      <trkpt lat="44.42068" lon="3.91996">
        <ele>992</ele>
        <time>2009-07-10T16:41:06Z</time>
      </trkpt>
      <trkpt lat="44.42078" lon="3.92009">
        <ele>991</ele>
        <time>2009-07-10T16:41:08Z</time>
      </trkpt>
      <trkpt lat="44.42107" lon="3.9203">
        <ele>986</ele>
        <time>2009-07-10T16:41:13Z</time>
      </trkpt>
      <trkpt lat="44.42118" lon="3.92036">
        <ele>984</ele>
        <time>2009-07-10T16:41:15Z</time>
      </trkpt>
      <trkpt lat="44.42179" lon="3.92095">
        <ele>985</ele>
        <time>2009-07-10T16:41:26Z</time>
      </trkpt>
      <trkpt lat="44.42182" lon="3.92098">
        <ele>984</ele>
        <time>2009-07-10T16:41:27Z</time>
      </trkpt>
      <trkpt lat="44.42203" lon="3.92124">
        <ele>983</ele>
        <time>2009-07-10T16:41:38Z</time>
      </trkpt>
      <trkpt lat="44.4221" lon="3.92134">
        <ele>982</ele>
        <time>2009-07-10T16:41:40Z</time>
      </trkpt>
      <trkpt lat="44.42233" lon="3.92152">
        <ele>980</ele>
        <time>2009-07-10T16:41:44Z</time>
      </trkpt>
      <trkpt lat="44.42253" lon="3.92167">
        <ele>978</ele>
        <time>2009-07-10T16:41:47Z</time>
      </trkpt>
      <trkpt lat="44.42279" lon="3.92193">
        <ele>981</ele>
        <time>2009-07-10T16:41:53Z</time>
      </trkpt>
      <trkpt lat="44.4229" lon="3.92208">
        <ele>984</ele>
        <time>2009-07-10T16:41:59Z</time>
      </trkpt>
      <trkpt lat="44.42298" lon="3.92221">
        <ele>987</ele>
        <time>2009-07-10T16:42:05Z</time>
      </trkpt>
      <trkpt lat="44.42309" lon="3.9223">
        <ele>988</ele>
        <time>2009-07-10T16:42:12Z</time>
      </trkpt>
      <trkpt lat="44.4231" lon="3.92231">
        <ele>988</ele>
        <time>2009-07-10T16:42:14Z</time>
      </trkpt>
      <trkpt lat="44.42313" lon="3.92232">
        <ele>988</ele>
        <time>2009-07-10T16:42:17Z</time>
      </trkpt>
      <trkpt lat="44.42316" lon="3.92233">
        <ele>989</ele>
        <time>2009-07-10T16:42:20Z</time>
      </trkpt>
      <trkpt lat="44.42327" lon="3.92236">
        <ele>988</ele>
        <time>2009-07-10T16:42:35Z</time>
      </trkpt>
      <trkpt lat="44.42366" lon="3.92242">
        <ele>986</ele>
        <time>2009-07-10T16:42:47Z</time>
      </trkpt>
      <trkpt lat="44.42399" lon="3.92269">
        <ele>990</ele>
        <time>2009-07-10T16:42:58Z</time>
      </trkpt>
      <trkpt lat="44.42449" lon="3.92303">
        <ele>991</ele>
        <time>2009-07-10T16:43:14Z</time>
      </trkpt>
      <trkpt lat="44.42506" lon="3.92317">
        <ele>992</ele>
        <time>2009-07-10T16:43:30Z</time>
      </trkpt>
      <trkpt lat="44.42551" lon="3.92324">
        <ele>989</ele>
        <time>2009-07-10T16:43:41Z</time>
      </trkpt>
      <trkpt lat="44.42569" lon="3.92337">
        <ele>985</ele>
        <time>2009-07-10T16:43:45Z</time>
      </trkpt>
      <trkpt lat="44.42575" lon="3.92341">
        <ele>982</ele>
        <time>2009-07-10T16:43:46Z</time>
      </trkpt>
      <trkpt lat="44.42597" lon="3.92357">
        <ele>978</ele>
        <time>2009-07-10T16:43:49Z</time>
      </trkpt>
      <trkpt lat="44.42604" lon="3.92363">
        <ele>980</ele>
        <time>2009-07-10T16:43:50Z</time>
      </trkpt>
      <trkpt lat="44.42633" lon="3.92377">
        <ele>974</ele>
        <time>2009-07-10T16:43:55Z</time>
      </trkpt>
      <trkpt lat="44.42655" lon="3.92387">
        <ele>969</ele>
        <time>2009-07-10T16:43:58Z</time>
      </trkpt>
      <trkpt lat="44.42661" lon="3.92389">
        <ele>969</ele>
        <time>2009-07-10T16:43:59Z</time>
      </trkpt>
      <trkpt lat="44.42673" lon="3.92392">
        <ele>967</ele>
        <time>2009-07-10T16:44:02Z</time>
      </trkpt>
      <trkpt lat="44.42687" lon="3.92393">
        <ele>961</ele>
        <time>2009-07-10T16:44:05Z</time>
      </trkpt>
      <trkpt lat="44.42703" lon="3.92393">
        <ele>956</ele>
        <time>2009-07-10T16:44:08Z</time>
      </trkpt>
      <trkpt lat="44.42715" lon="3.92394">
        <ele>952</ele>
        <time>2009-07-10T16:44:10Z</time>
      </trkpt>
      <trkpt lat="44.42734" lon="3.92396">
        <ele>949</ele>
        <time>2009-07-10T16:44:13Z</time>
      </trkpt>
      <trkpt lat="44.42745" lon="3.92398">
        <ele>947</ele>
        <time>2009-07-10T16:44:15Z</time>
      </trkpt>
      <trkpt lat="44.42763" lon="3.92399">
        <ele>943</ele>
        <time>2009-07-10T16:44:18Z</time>
      </trkpt>
      <trkpt lat="44.42776" lon="3.92399">
        <ele>939</ele>
        <time>2009-07-10T16:44:20Z</time>
      </trkpt>
      <trkpt lat="44.42793" lon="3.92403">
        <ele>934</ele>
        <time>2009-07-10T16:44:23Z</time>
      </trkpt>
      <trkpt lat="44.42804" lon="3.92404">
        <ele>930</ele>
        <time>2009-07-10T16:44:25Z</time>
      </trkpt>
      <trkpt lat="44.42819" lon="3.92406">
        <ele>925</ele>
        <time>2009-07-10T16:44:28Z</time>
      </trkpt>
      <trkpt lat="44.42845" lon="3.92408">
        <ele>925</ele>
        <time>2009-07-10T16:44:48Z</time>
      </trkpt>
      <trkpt lat="44.42851" lon="3.92409">
        <ele>917</ele>
        <time>2009-07-10T16:44:34Z</time>
      </trkpt>
      <trkpt lat="44.42874" lon="3.92411">
        <ele>914</ele>
        <time>2009-07-10T16:44:38Z</time>
      </trkpt>
      <trkpt lat="44.42879" lon="3.92411">
        <ele>911</ele>
        <time>2009-07-10T16:44:39Z</time>
      </trkpt>
      <trkpt lat="44.42885" lon="3.92411">
        <ele>911</ele>
        <time>2009-07-10T16:44:40Z</time>
      </trkpt>
      <trkpt lat="44.42897" lon="3.92411">
        <ele>907</ele>
        <time>2009-07-10T16:44:42Z</time>
      </trkpt>
      <trkpt lat="44.4291" lon="3.92414">
        <ele>904</ele>
        <time>2009-07-10T16:44:44Z</time>
      </trkpt>
      <trkpt lat="44.42923" lon="3.92416">
        <ele>900</ele>
        <time>2009-07-10T16:44:46Z</time>
      </trkpt>
      <trkpt lat="44.4295" lon="3.92417">
        <ele>894</ele>
        <time>2009-07-10T16:44:50Z</time>
      </trkpt>
      <trkpt lat="44.42963" lon="3.92415">
        <ele>889</ele>
        <time>2009-07-10T16:44:52Z</time>
      </trkpt>
      <trkpt lat="44.43009" lon="3.92418">
        <ele>883</ele>
        <time>2009-07-10T16:44:58Z</time>
      </trkpt>
      <trkpt lat="44.43027" lon="3.92417">
        <ele>880</ele>
        <time>2009-07-10T16:45:00Z</time>
      </trkpt>
      <trkpt lat="44.43036" lon="3.92416">
        <ele>880</ele>
        <time>2009-07-10T16:45:01Z</time>
      </trkpt>
      <trkpt lat="44.43083" lon="3.92415">
        <ele>882</ele>
        <time>2009-07-10T16:45:09Z</time>
      </trkpt>
      <trkpt lat="44.43084" lon="3.92415">
        <ele>881</ele>
        <time>2009-07-10T16:45:19Z</time>
      </trkpt>
      <trkpt lat="44.43083" lon="3.92414">
        <ele>877</ele>
        <time>2009-07-10T16:45:41Z</time>
      </trkpt>
      <trkpt lat="44.43083" lon="3.92414">
        <ele>880</ele>
        <time>2009-07-10T16:45:42Z</time>
      </trkpt>
      <trkpt lat="44.43083" lon="3.92414">
        <ele>880</ele>
        <time>2009-07-10T16:45:44Z</time>
      </trkpt>
      <trkpt lat="44.43083" lon="3.92413">
        <ele>881</ele>
        <time>2009-07-10T16:46:15Z</time>
      </trkpt>
      <trkpt lat="44.43083" lon="3.92413">
        <ele>880</ele>
        <time>2009-07-10T16:46:20Z</time>
      </trkpt>
      <trkpt lat="44.43101" lon="3.92413">
        <ele>878</ele>
        <time>2009-07-10T16:46:26Z</time>
      </trkpt>
      <trkpt lat="44.43119" lon="3.92411">
        <ele>877</ele>
        <time>2009-07-10T16:46:30Z</time>
      </trkpt>
      <trkpt lat="44.4313" lon="3.92409">
        <ele>873</ele>
        <time>2009-07-10T16:46:32Z</time>
      </trkpt>
      <trkpt lat="44.43136" lon="3.92408">
        <ele>873</ele>
        <time>2009-07-10T16:46:33Z</time>
      </trkpt>
      <trkpt lat="44.43142" lon="3.92406">
        <ele>872</ele>
        <time>2009-07-10T16:46:34Z</time>
      </trkpt>
      <trkpt lat="44.43158" lon="3.9242">
        <ele>871</ele>
        <time>2009-07-10T16:46:40Z</time>
      </trkpt>
      <trkpt lat="44.43156" lon="3.92418">
        <ele>871</ele>
        <time>2009-07-10T16:46:51Z</time>
      </trkpt>
      <trkpt lat="44.43142" lon="3.92433">
        <ele>868</ele>
        <time>2009-07-10T16:47:31Z</time>
      </trkpt>
      <trkpt lat="44.43122" lon="3.92443">
        <ele>866</ele>
        <time>2009-07-10T16:47:37Z</time>
      </trkpt>
      <trkpt lat="44.43101" lon="3.92456">
        <ele>864</ele>
        <time>2009-07-10T16:47:42Z</time>
      </trkpt>
      <trkpt lat="44.43091" lon="3.92464">
        <ele>863</ele>
        <time>2009-07-10T16:47:44Z</time>
      </trkpt>
      <trkpt lat="44.43085" lon="3.92468">
        <ele>862</ele>
        <time>2009-07-10T16:47:45Z</time>
      </trkpt>
      <trkpt lat="44.43046" lon="3.92494">
        <ele>858</ele>
        <time>2009-07-10T16:47:51Z</time>
      </trkpt>
      <trkpt lat="44.43024" lon="3.92506">
        <ele>857</ele>
        <time>2009-07-10T16:47:54Z</time>
      </trkpt>
      <trkpt lat="44.43" lon="3.92519">
        <ele>856</ele>
        <time>2009-07-10T16:47:57Z</time>
      </trkpt>
      <trkpt lat="44.42968" lon="3.92533">
        <ele>854</ele>
        <time>2009-07-10T16:48:01Z</time>
      </trkpt>
      <trkpt lat="44.42956" lon="3.92544">
        <ele>851</ele>
        <time>2009-07-10T16:48:03Z</time>
      </trkpt>
      <trkpt lat="44.42923" lon="3.92591">
        <ele>847</ele>
        <time>2009-07-10T16:48:08Z</time>
      </trkpt>
      <trkpt lat="44.42903" lon="3.92625">
        <ele>842</ele>
        <time>2009-07-10T16:48:11Z</time>
      </trkpt>
      <trkpt lat="44.4289" lon="3.92649">
        <ele>839</ele>
        <time>2009-07-10T16:48:13Z</time>
      </trkpt>
      <trkpt lat="44.42872" lon="3.92701">
        <ele>837</ele>
        <time>2009-07-10T16:48:17Z</time>
      </trkpt>
      <trkpt lat="44.42864" lon="3.92738">
        <ele>836</ele>
        <time>2009-07-10T16:48:20Z</time>
      </trkpt>
      <trkpt lat="44.42859" lon="3.92781">
        <ele>832</ele>
        <time>2009-07-10T16:48:23Z</time>
      </trkpt>
      <trkpt lat="44.42847" lon="3.92806">
        <ele>833</ele>
        <time>2009-07-10T16:48:26Z</time>
      </trkpt>
      <trkpt lat="44.42846" lon="3.9282">
        <ele>830</ele>
        <time>2009-07-10T16:48:30Z</time>
      </trkpt>
      <trkpt lat="44.42861" lon="3.92807">
        <ele>826</ele>
        <time>2009-07-10T16:48:34Z</time>
      </trkpt>
      <trkpt lat="44.42865" lon="3.92803">
        <ele>826</ele>
        <time>2009-07-10T16:48:35Z</time>
      </trkpt>
      <trkpt lat="44.42892" lon="3.92754">
        <ele>821</ele>
        <time>2009-07-10T16:48:41Z</time>
      </trkpt>
      <trkpt lat="44.42898" lon="3.92744">
        <ele>819</ele>
        <time>2009-07-10T16:48:42Z</time>
      </trkpt>
      <trkpt lat="44.42922" lon="3.92712">
        <ele>817</ele>
        <time>2009-07-10T16:48:46Z</time>
      </trkpt>
      <trkpt lat="44.42932" lon="3.92703">
        <ele>816</ele>
        <time>2009-07-10T16:48:48Z</time>
      </trkpt>
      <trkpt lat="44.4295" lon="3.92697">
        <ele>814</ele>
        <time>2009-07-10T16:48:52Z</time>
      </trkpt>
      <trkpt lat="44.42968" lon="3.92698">
        <ele>810</ele>
        <time>2009-07-10T16:48:56Z</time>
      </trkpt>
      <trkpt lat="44.42972" lon="3.927">
        <ele>810</ele>
        <time>2009-07-10T16:48:57Z</time>
      </trkpt>
      <trkpt lat="44.42988" lon="3.92705">
        <ele>808</ele>
        <time>2009-07-10T16:49:00Z</time>
      </trkpt>
      <trkpt lat="44.43016" lon="3.92709">
        <ele>804</ele>
        <time>2009-07-10T16:49:04Z</time>
      </trkpt>
      <trkpt lat="44.43044" lon="3.92691">
        <ele>800</ele>
        <time>2009-07-10T16:49:07Z</time>
      </trkpt>
      <trkpt lat="44.43093" lon="3.9268">
        <ele>795</ele>
        <time>2009-07-10T16:49:13Z</time>
      </trkpt>
      <trkpt lat="44.43125" lon="3.9267">
        <ele>792</ele>
        <time>2009-07-10T16:49:17Z</time>
      </trkpt>
      <trkpt lat="44.43134" lon="3.92664">
        <ele>790</ele>
        <time>2009-07-10T16:49:18Z</time>
      </trkpt>
      <trkpt lat="44.43175" lon="3.92658">
        <ele>787</ele>
        <time>2009-07-10T16:49:22Z</time>
      </trkpt>
      <trkpt lat="44.43204" lon="3.92668">
        <ele>781</ele>
        <time>2009-07-10T16:49:26Z</time>
      </trkpt>
      <trkpt lat="44.43215" lon="3.92693">
        <ele>779</ele>
        <time>2009-07-10T16:49:28Z</time>
      </trkpt>
      <trkpt lat="44.43231" lon="3.92725">
        <ele>777</ele>
        <time>2009-07-10T16:49:30Z</time>
      </trkpt>
      <trkpt lat="44.43247" lon="3.92754">
        <ele>773</ele>
        <time>2009-07-10T16:49:33Z</time>
      </trkpt>
      <trkpt lat="44.4326" lon="3.92774">
        <ele>770</ele>
        <time>2009-07-10T16:49:35Z</time>
      </trkpt>
      <trkpt lat="44.43277" lon="3.92784">
        <ele>768</ele>
        <time>2009-07-10T16:49:37Z</time>
      </trkpt>
      <trkpt lat="44.43297" lon="3.92785">
        <ele>766</ele>
        <time>2009-07-10T16:49:39Z</time>
      </trkpt>
      <trkpt lat="44.43347" lon="3.92788">
        <ele>761</ele>
        <time>2009-07-10T16:49:44Z</time>
      </trkpt>
      <trkpt lat="44.43357" lon="3.9279">
        <ele>759</ele>
        <time>2009-07-10T16:49:45Z</time>
      </trkpt>
      <trkpt lat="44.43385" lon="3.92798">
        <ele>757</ele>
        <time>2009-07-10T16:49:48Z</time>
      </trkpt>
      <trkpt lat="44.43412" lon="3.92795">
        <ele>756</ele>
        <time>2009-07-10T16:49:51Z</time>
      </trkpt>
      <trkpt lat="44.43423" lon="3.92798">
        <ele>756</ele>
        <time>2009-07-10T16:49:58Z</time>
      </trkpt>
      <trkpt lat="44.43417" lon="3.9281">
        <ele>756</ele>
        <time>2009-07-10T16:50:37Z</time>
      </trkpt>
      <trkpt lat="44.43418" lon="3.92809">
        <ele>756</ele>
        <time>2009-07-10T16:50:46Z</time>
      </trkpt>
      <trkpt lat="44.43402" lon="3.92817">
        <ele>755</ele>
        <time>2009-07-10T16:50:54Z</time>
      </trkpt>
      <trkpt lat="44.43382" lon="3.92823">
        <ele>752</ele>
        <time>2009-07-10T16:50:59Z</time>
      </trkpt>
      <trkpt lat="44.43371" lon="3.92835">
        <ele>748</ele>
        <time>2009-07-10T16:51:06Z</time>
      </trkpt>
      <trkpt lat="44.4338" lon="3.92837">
        <ele>748</ele>
        <time>2009-07-10T16:51:08Z</time>
      </trkpt>
      <trkpt lat="44.4339" lon="3.92841">
        <ele>746</ele>
        <time>2009-07-10T16:51:10Z</time>
      </trkpt>
      <trkpt lat="44.43415" lon="3.92846">
        <ele>744</ele>
        <time>2009-07-10T16:51:14Z</time>
      </trkpt>
      <trkpt lat="44.43434" lon="3.92849">
        <ele>742</ele>
        <time>2009-07-10T16:51:17Z</time>
      </trkpt>
      <trkpt lat="44.43451" lon="3.9285">
        <ele>740</ele>
        <time>2009-07-10T16:51:20Z</time>
      </trkpt>
      <trkpt lat="44.43453" lon="3.92869">
        <ele>735</ele>
        <time>2009-07-10T16:51:26Z</time>
      </trkpt>
      <trkpt lat="44.43441" lon="3.92883">
        <ele>732</ele>
        <time>2009-07-10T16:51:29Z</time>
      </trkpt>
      <trkpt lat="44.43424" lon="3.92905">
        <ele>729</ele>
        <time>2009-07-10T16:51:32Z</time>
      </trkpt>
      <trkpt lat="44.4342" lon="3.92919">
        <ele>727</ele>
        <time>2009-07-10T16:51:38Z</time>
      </trkpt>
      <trkpt lat="44.43428" lon="3.92918">
        <ele>726</ele>
        <time>2009-07-10T16:51:40Z</time>
      </trkpt>
      <trkpt lat="44.43439" lon="3.92921">
        <ele>726</ele>
        <time>2009-07-10T16:51:42Z</time>
      </trkpt>
      <trkpt lat="44.43453" lon="3.92922">
        <ele>723</ele>
        <time>2009-07-10T16:51:44Z</time>
      </trkpt>
      <trkpt lat="44.43481" lon="3.92906">
        <ele>718</ele>
        <time>2009-07-10T16:51:49Z</time>
      </trkpt>
      <trkpt lat="44.4349" lon="3.92901">
        <ele>715</ele>
        <time>2009-07-10T16:51:53Z</time>
      </trkpt>
      <trkpt lat="44.43493" lon="3.929">
        <ele>713</ele>
        <time>2009-07-10T16:51:55Z</time>
      </trkpt>
      <trkpt lat="44.43503" lon="3.92925">
        <ele>710</ele>
        <time>2009-07-10T16:51:58Z</time>
      </trkpt>
      <trkpt lat="44.43512" lon="3.92969">
        <ele>707</ele>
        <time>2009-07-10T16:52:01Z</time>
      </trkpt>
      <trkpt lat="44.43516" lon="3.92981">
        <ele>707</ele>
        <time>2009-07-10T16:52:02Z</time>
      </trkpt>
      <trkpt lat="44.43527" lon="3.92998">
        <ele>706</ele>
        <time>2009-07-10T16:52:04Z</time>
      </trkpt>
      <trkpt lat="44.43574" lon="3.93008">
        <ele>704</ele>
        <time>2009-07-10T16:52:07Z</time>
      </trkpt>
      <trkpt lat="44.43584" lon="3.93009">
        <ele>705</ele>
        <time>2009-07-10T16:52:08Z</time>
      </trkpt>
      <trkpt lat="44.43592" lon="3.93007">
        <ele>705</ele>
        <time>2009-07-10T16:52:24Z</time>
      </trkpt>
      <trkpt lat="44.43592" lon="3.93009">
        <ele>705</ele>
        <time>2009-07-10T16:52:36Z</time>
      </trkpt>
      <trkpt lat="44.43583" lon="3.93026">
        <ele>703</ele>
        <time>2009-07-10T16:52:44Z</time>
      </trkpt>
      <trkpt lat="44.43565" lon="3.93029">
        <ele>700</ele>
        <time>2009-07-10T16:52:49Z</time>
      </trkpt>
      <trkpt lat="44.43551" lon="3.93026">
        <ele>699</ele>
        <time>2009-07-10T16:52:52Z</time>
      </trkpt>
      <trkpt lat="44.43533" lon="3.93007">
        <ele>694</ele>
        <time>2009-07-10T16:52:56Z</time>
      </trkpt>
      <trkpt lat="44.43503" lon="3.92995">
        <ele>692</ele>
        <time>2009-07-10T16:53:02Z</time>
      </trkpt>
      <trkpt lat="44.43487" lon="3.93013">
        <ele>689</ele>
        <time>2009-07-10T16:53:06Z</time>
      </trkpt>
      <trkpt lat="44.43464" lon="3.93047">
        <ele>685</ele>
        <time>2009-07-10T16:53:11Z</time>
      </trkpt>
      <trkpt lat="44.43454" lon="3.93063">
        <ele>682</ele>
        <time>2009-07-10T16:53:13Z</time>
      </trkpt>
      <trkpt lat="44.4344" lon="3.93087">
        <ele>679</ele>
        <time>2009-07-10T16:53:16Z</time>
      </trkpt>
      <trkpt lat="44.43436" lon="3.93095">
        <ele>678</ele>
        <time>2009-07-10T16:53:17Z</time>
      </trkpt>
      <trkpt lat="44.43418" lon="3.93102">
        <ele>674</ele>
        <time>2009-07-10T16:53:20Z</time>
      </trkpt>
      <trkpt lat="44.43411" lon="3.93098">
        <ele>672</ele>
        <time>2009-07-10T16:53:21Z</time>
      </trkpt>
      <trkpt lat="44.43396" lon="3.9309">
        <ele>671</ele>
        <time>2009-07-10T16:53:23Z</time>
      </trkpt>
      <trkpt lat="44.43384" lon="3.93088">
        <ele>671</ele>
        <time>2009-07-10T16:53:25Z</time>
      </trkpt>
      <trkpt lat="44.43376" lon="3.93104">
        <ele>671</ele>
        <time>2009-07-10T16:53:31Z</time>
      </trkpt>
      <trkpt lat="44.43381" lon="3.93112">
        <ele>670</ele>
        <time>2009-07-10T16:53:34Z</time>
      </trkpt>
      <trkpt lat="44.4339" lon="3.93129">
        <ele>668</ele>
        <time>2009-07-10T16:53:45Z</time>
      </trkpt>
      <trkpt lat="44.43392" lon="3.93136">
        <ele>668</ele>
        <time>2009-07-10T16:53:47Z</time>
      </trkpt>
      <trkpt lat="44.43395" lon="3.93164">
        <ele>664</ele>
        <time>2009-07-10T16:53:51Z</time>
      </trkpt>
      <trkpt lat="44.43397" lon="3.93195">
        <ele>662</ele>
        <time>2009-07-10T16:53:54Z</time>
      </trkpt>
      <trkpt lat="44.43398" lon="3.93205">
        <ele>661</ele>
        <time>2009-07-10T16:53:55Z</time>
      </trkpt>
      <trkpt lat="44.43445" lon="3.93254">
        <ele>657</ele>
        <time>2009-07-10T16:54:03Z</time>
      </trkpt>
      <trkpt lat="44.4345" lon="3.93254">
        <ele>654</ele>
        <time>2009-07-10T16:54:04Z</time>
      </trkpt>
      <trkpt lat="44.43455" lon="3.93253">
        <ele>654</ele>
        <time>2009-07-10T16:54:05Z</time>
      </trkpt>
      <trkpt lat="44.43483" lon="3.93223">
        <ele>654</ele>
        <time>2009-07-10T16:54:11Z</time>
      </trkpt>
      <trkpt lat="44.43493" lon="3.93206">
        <ele>649</ele>
        <time>2009-07-10T16:54:13Z</time>
      </trkpt>
      <trkpt lat="44.43501" lon="3.9319">
        <ele>649</ele>
        <time>2009-07-10T16:54:15Z</time>
      </trkpt>
      <trkpt lat="44.43515" lon="3.93205">
        <ele>646</ele>
        <time>2009-07-10T16:54:19Z</time>
      </trkpt>
      <trkpt lat="44.43509" lon="3.93224">
        <ele>645</ele>
        <time>2009-07-10T16:54:21Z</time>
      </trkpt>
      <trkpt lat="44.43491" lon="3.9326">
        <ele>643</ele>
        <time>2009-07-10T16:54:25Z</time>
      </trkpt>
      <trkpt lat="44.43504" lon="3.93283">
        <ele>639</ele>
        <time>2009-07-10T16:54:32Z</time>
      </trkpt>
      <trkpt lat="44.43516" lon="3.93276">
        <ele>638</ele>
        <time>2009-07-10T16:54:34Z</time>
      </trkpt>
      <trkpt lat="44.43529" lon="3.93268">
        <ele>636</ele>
        <time>2009-07-10T16:54:36Z</time>
      </trkpt>
      <trkpt lat="44.43559" lon="3.93255">
        <ele>630</ele>
        <time>2009-07-10T16:54:42Z</time>
      </trkpt>
      <trkpt lat="44.43556" lon="3.93289">
        <ele>627</ele>
        <time>2009-07-10T16:54:45Z</time>
      </trkpt>
      <trkpt lat="44.43538" lon="3.93314">
        <ele>625</ele>
        <time>2009-07-10T16:54:49Z</time>
      </trkpt>
      <trkpt lat="44.43539" lon="3.93319">
        <ele>626</ele>
        <time>2009-07-10T16:54:57Z</time>
      </trkpt>
      <trkpt lat="44.43539" lon="3.93319">
        <ele>626</ele>
        <time>2009-07-10T16:54:58Z</time>
      </trkpt>
      <trkpt lat="44.43575" lon="3.93324">
        <ele>622</ele>
        <time>2009-07-10T16:55:07Z</time>
      </trkpt>
      <trkpt lat="44.43588" lon="3.93324">
        <ele>620</ele>
        <time>2009-07-10T16:55:09Z</time>
      </trkpt>
      <trkpt lat="44.43612" lon="3.93323">
        <ele>619</ele>
        <time>2009-07-10T16:55:12Z</time>
      </trkpt>
      <trkpt lat="44.43668" lon="3.93327">
        <ele>614</ele>
        <time>2009-07-10T16:55:19Z</time>
      </trkpt>
      <trkpt lat="44.43722" lon="3.93327">
        <ele>610</ele>
        <time>2009-07-10T16:55:25Z</time>
      </trkpt>
      <trkpt lat="44.43765" lon="3.93322">
        <ele>609</ele>
        <time>2009-07-10T16:55:30Z</time>
      </trkpt>
      <trkpt lat="44.43784" lon="3.93309">
        <ele>607</ele>
        <time>2009-07-10T16:55:33Z</time>
      </trkpt>
      <trkpt lat="44.43798" lon="3.93281">
        <ele>607</ele>
        <time>2009-07-10T16:55:36Z</time>
      </trkpt>
      <trkpt lat="44.43813" lon="3.93258">
        <ele>605</ele>
        <time>2009-07-10T16:55:39Z</time>
      </trkpt>
      <trkpt lat="44.43874" lon="3.93223">
        <ele>604</ele>
        <time>2009-07-10T16:55:48Z</time>
      </trkpt>
      <trkpt lat="44.43904" lon="3.93224">
        <ele>602</ele>
        <time>2009-07-10T16:55:52Z</time>
      </trkpt>
      <trkpt lat="44.43974" lon="3.93208">
        <ele>601</ele>
        <time>2009-07-10T16:56:03Z</time>
      </trkpt>
      <trkpt lat="44.43993" lon="3.93206">
        <ele>602</ele>
        <time>2009-07-10T16:56:06Z</time>
      </trkpt>
      <trkpt lat="44.4411" lon="3.93194">
        <ele>600</ele>
        <time>2009-07-10T16:56:25Z</time>
      </trkpt>
      <trkpt lat="44.44134" lon="3.93189">
        <ele>599</ele>
        <time>2009-07-10T16:56:29Z</time>
      </trkpt>
      <trkpt lat="44.44185" lon="3.93184">
        <ele>599</ele>
        <time>2009-07-10T16:56:38Z</time>
      </trkpt>
      <trkpt lat="44.44208" lon="3.93195">
        <ele>598</ele>
        <time>2009-07-10T16:56:42Z</time>
      </trkpt>
      <trkpt lat="44.44279" lon="3.93273">
        <ele>596</ele>
        <time>2009-07-10T16:56:57Z</time>
      </trkpt>
      <trkpt lat="44.44287" lon="3.93287">
        <ele>597</ele>
        <time>2009-07-10T16:57:04Z</time>
      </trkpt>
      <trkpt lat="44.44287" lon="3.93287">
        <ele>597</ele>
        <time>2009-07-10T16:57:22Z</time>
      </trkpt>
      <trkpt lat="44.44285" lon="3.93285">
        <ele>598</ele>
        <time>2009-07-10T16:59:06Z</time>
      </trkpt>
      <trkpt lat="44.44284" lon="3.93286">
        <ele>597</ele>
        <time>2009-07-10T17:00:12Z</time>
      </trkpt>
      <trkpt lat="44.44283" lon="3.93286">
        <ele>592</ele>
        <time>2009-07-10T17:02:36Z</time>
      </trkpt>
      <trkpt lat="44.44283" lon="3.93286">
        <ele>599</ele>
        <time>2009-07-10T17:02:37Z</time>
      </trkpt>
      <trkpt lat="44.44283" lon="3.93286">
        <ele>596</ele>
        <time>2009-07-10T17:02:38Z</time>
      </trkpt>
    </trkseg>
  </trk>
</gpx>